Observation data for Coyanosa on 01/11/2018      Previous  Date  Next       Current Mesonet Observations  Soil Data  Daily Summary Page  Observations in Plain Language
KCO1 110600Z 25012KT 12/00 A2979 RMK A01 T01230001  RH  043%=      5-min Rain = 0
KCO1 110601Z 25011KT 12/00 A2979 RMK A01 T01220001  RH  043%=      5-min Rain = 0
KCO1 110602Z 24012KT 12/00 A2979 RMK A01 T01210001  RH  044%=      5-min Rain = 0
KCO1 110603Z 25011KT 12/00 A2979 RMK A01 T01210001  RH  044%=      5-min Rain = 0
KCO1 110604Z 25011KT 12/00 A2979 RMK A01 T01200001  RH  044%=      5-min Rain = 0
KCO1 110605Z 25012KT 12/00 A2979 RMK A01 T01200001  RH  044%=      5-min Rain = 0
KCO1 110606Z 24011KT 12/00 A2978 RMK A01 T01200001  RH  044%=      5-min Rain = 0
KCO1 110607Z 24012KT 12/00 A2978 RMK A01 T01190001  RH  044%=      5-min Rain = 0
KCO1 110608Z 24012KT 12/00 A2978 RMK A01 T01200001  RH  044%=      5-min Rain = 0
KCO1 110609Z 24011KT 12/00 A2978 RMK A01 T01210002  RH  044%=      5-min Rain = 0
KCO1 110610Z 24010KT 12/00 A2978 RMK A01 T01210002  RH  044%=      5-min Rain = 0
KCO1 110611Z 24010KT 12/00 A2978 RMK A01 T01210002  RH  044%=      5-min Rain = 0
KCO1 110612Z 24011KT 12/00 A2978 RMK A01 T01210002  RH  044%=      5-min Rain = 0
KCO1 110613Z 25010KT 12/00 A2979 RMK A01 T01220003  RH  044%=      5-min Rain = 0
KCO1 110614Z 25011KT 12/00 A2979 RMK A01 T01230003  RH  044%=      5-min Rain = 0
KCO1 110615Z 25011KT 12/00 A2979 RMK A01 T01230003  RH  044%=      5-min Rain = 0
KCO1 110616Z 25012KT 12/00 A2979 RMK A01 T01230003  RH  044%=      5-min Rain = 0
KCO1 110617Z 25009KT 12/00 A2979 RMK A01 T01230003  RH  044%=      5-min Rain = 0
KCO1 110618Z 25011KT 12/00 A2979 RMK A01 T01220002  RH  044%=      5-min Rain = 0
KCO1 110619Z 25010KT 12/00 A2978 RMK A01 T01210002  RH  044%=      5-min Rain = 0
KCO1 110620Z 25010KT 12/00 A2978 RMK A01 T01200002  RH  044%=      5-min Rain = 0
KCO1 110621Z 25011KT 12/00 A2978 RMK A01 T01200003  RH  044%=      5-min Rain = 0
KCO1 110622Z 25010KT 12/00 A2978 RMK A01 T01200003  RH  045%=      5-min Rain = 0
KCO1 110623Z 24011KT 12/00 A2978 RMK A01 T01190003  RH  045%=      5-min Rain = 0
KCO1 110624Z 25012KT 12/00 A2978 RMK A01 T01200003  RH  045%=      5-min Rain = 0
KCO1 110625Z 25011KT 12/00 A2978 RMK A01 T01200003  RH  045%=      5-min Rain = 0
KCO1 110626Z 25013KT 12/00 A2978 RMK A01 T01210004  RH  044%=      5-min Rain = 0
KCO1 110627Z 25010KT 12/00 A2978 RMK A01 T01220004  RH  044%=      5-min Rain = 0
KCO1 110628Z 25011KT 12/00 A2979 RMK A01 T01220004  RH  044%=      5-min Rain = 0
KCO1 110629Z 26011KT 12/00 A2979 RMK A01 T01210004  RH  045%=      5-min Rain = 0
KCO1 110630Z 25010KT 12/00 A2979 RMK A01 T01200004  RH  045%=      5-min Rain = 0
KCO1 110631Z 26011KT 12/00 A2979 RMK A01 T01200004  RH  045%=      5-min Rain = 0
KCO1 110632Z 25010KT 12/00 A2979 RMK A01 T01210004  RH  045%=      5-min Rain = 0
KCO1 110633Z 25011KT 12/00 A2979 RMK A01 T01210004  RH  045%=      5-min Rain = 0
KCO1 110634Z 25010KT 12/00 A2978 RMK A01 T01200004  RH  045%=      5-min Rain = 0
KCO1 110635Z 25010KT 12/00 A2978 RMK A01 T01190004  RH  045%=      5-min Rain = 0
KCO1 110636Z 25010KT 12/00 A2978 RMK A01 T01190004  RH  045%=      5-min Rain = 0
KCO1 110637Z 25011KT 12/01 A2978 RMK A01 T01180005  RH  046%=      5-min Rain = 0
KCO1 110638Z 25010KT 12/01 A2978 RMK A01 T01180005  RH  046%=      5-min Rain = 0
KCO1 110639Z 25010KT 12/01 A2978 RMK A01 T01190005  RH  046%=      5-min Rain = 0
KCO1 110640Z 25011KT 12/01 A2978 RMK A01 T01190005  RH  046%=      5-min Rain = 0
KCO1 110641Z 24011KT 12/01 A2978 RMK A01 T01190005  RH  046%=      5-min Rain = 0
KCO1 110642Z 24012KT 12/01 A2978 RMK A01 T01190006  RH  046%=      5-min Rain = 0
KCO1 110643Z 25011KT 12/01 A2978 RMK A01 T01210006  RH  045%=      5-min Rain = 0
KCO1 110644Z 25011KT 12/01 A2978 RMK A01 T01210006  RH  045%=      5-min Rain = 0
KCO1 110645Z 25011KT 12/01 A2978 RMK A01 T01200006  RH  045%=      5-min Rain = 0
KCO1 110646Z 24009KT 12/01 A2978 RMK A01 T01200006  RH  045%=      5-min Rain = 0
KCO1 110647Z 25010KT 12/01 A2978 RMK A01 T01200006  RH  046%=      5-min Rain = 0
KCO1 110648Z 25010KT 12/01 A2978 RMK A01 T01200006  RH  046%=      5-min Rain = 0
KCO1 110649Z 25010KT 12/01 A2978 RMK A01 T01190006  RH  046%=      5-min Rain = 0
KCO1 110650Z 25010KT 12/01 A2978 RMK A01 T01190006  RH  046%=      5-min Rain = 0
KCO1 110651Z 25010KT 12/01 A2978 RMK A01 T01190006  RH  046%=      5-min Rain = 0
KCO1 110652Z 25011KT 12/01 A2978 RMK A01 T01180006  RH  046%=      5-min Rain = 0
KCO1 110653Z 25011KT 12/01 A2978 RMK A01 T01180007  RH  046%=      5-min Rain = 0
KCO1 110654Z 25011KT 12/01 A2978 RMK A01 T01190007  RH  046%=      5-min Rain = 0
KCO1 110655Z 25011KT 12/01 A2978 RMK A01 T01180007  RH  046%=      5-min Rain = 0
KCO1 110656Z 25012KT 12/01 A2978 RMK A01 T01180007  RH  047%=      5-min Rain = 0
KCO1 110657Z 25011KT 12/01 A2978 RMK A01 T01170007  RH  047%=      5-min Rain = 0
KCO1 110658Z 25011KT 12/01 A2978 RMK A01 T01180007  RH  047%=      5-min Rain = 0
KCO1 110659Z 25012KT 12/01 A2978 RMK A01 T01180008  RH  047%=      5-min Rain = 0
KCO1 110700Z 25011KT 12/01 A2978 RMK A01 T01170007  RH  047%=      5-min Rain = 0
KCO1 110701Z 25010KT 12/01 A2978 RMK A01 T01170007  RH  047%=      5-min Rain = 0
KCO1 110702Z 25011KT 12/01 A2978 RMK A01 T01170007  RH  047%=      5-min Rain = 0
KCO1 110703Z 25010KT 12/01 A2978 RMK A01 T01170008  RH  047%=      5-min Rain = 0
KCO1 110704Z 25010KT 12/01 A2978 RMK A01 T01160007  RH  047%=      5-min Rain = 0
KCO1 110705Z 25010KT 12/01 A2978 RMK A01 T01160008  RH  047%=      5-min Rain = 0
KCO1 110706Z 25010KT 12/01 A2978 RMK A01 T01160008  RH  047%=      5-min Rain = 0
KCO1 110707Z 25009KT 12/01 A2978 RMK A01 T01160008  RH  047%=      5-min Rain = 0
KCO1 110708Z 25010KT 12/01 A2978 RMK A01 T01160008  RH  047%=      5-min Rain = 0
KCO1 110709Z 25011KT 12/01 A2978 RMK A01 T01160008  RH  047%=      5-min Rain = 0
KCO1 110710Z 25009KT 12/01 A2978 RMK A01 T01170008  RH  047%=      5-min Rain = 0
KCO1 110711Z 25010KT 12/01 A2978 RMK A01 T01170008  RH  047%=      5-min Rain = 0
KCO1 110712Z 25010KT 12/01 A2978 RMK A01 T01170008  RH  047%=      5-min Rain = 0
KCO1 110713Z 25009KT 12/01 A2978 RMK A01 T01160008  RH  047%=      5-min Rain = 0
KCO1 110714Z 25010KT 12/01 A2978 RMK A01 T01160008  RH  047%=      5-min Rain = 0
KCO1 110715Z 24010KT 12/01 A2978 RMK A01 T01160008  RH  047%=      5-min Rain = 0
KCO1 110716Z 24010KT 12/01 A2978 RMK A01 T01170008  RH  047%=      5-min Rain = 0
KCO1 110717Z 25011KT 12/01 A2978 RMK A01 T01180008  RH  047%=      5-min Rain = 0
KCO1 110718Z 24011KT 12/01 A2978 RMK A01 T01180008  RH  047%=      5-min Rain = 0
KCO1 110719Z 23007KT 12/01 A2978 RMK A01 T01190008  RH  047%=      5-min Rain = 0
KCO1 110720Z 23006KT 12/01 A2978 RMK A01 T01190008  RH  047%=      5-min Rain = 0
KCO1 110721Z 23007KT 12/01 A2978 RMK A01 T01180008  RH  047%=      5-min Rain = 0
KCO1 110722Z 24009KT 12/01 A2977 RMK A01 T01180008  RH  047%=      5-min Rain = 0
KCO1 110723Z 24009KT 12/01 A2977 RMK A01 T01190008  RH  047%=      5-min Rain = 0
KCO1 110724Z 24008KT 12/01 A2977 RMK A01 T01210008  RH  046%=      5-min Rain = 0
KCO1 110725Z 24008KT 12/01 A2977 RMK A01 T01210008  RH  046%=      5-min Rain = 0
KCO1 110726Z 23006KT 12/01 A2977 RMK A01 T01220008  RH  046%=      5-min Rain = 0
KCO1 110727Z 24006KT 12/01 A2978 RMK A01 T01210008  RH  046%=      5-min Rain = 0
KCO1 110728Z 24006KT 12/01 A2978 RMK A01 T01200008  RH  046%=      5-min Rain = 0
KCO1 110729Z 24006KT 12/01 A2978 RMK A01 T01200008  RH  046%=      5-min Rain = 0
KCO1 110730Z 24006KT 12/01 A2978 RMK A01 T01190008  RH  046%=      5-min Rain = 0
KCO1 110731Z 24009KT 12/01 A2978 RMK A01 T01190008  RH  047%=      5-min Rain = 0
KCO1 110732Z 24006KT 12/01 A2977 RMK A01 T01210009  RH  046%=      5-min Rain = 0
KCO1 110733Z 25007KT 12/01 A2977 RMK A01 T01220009  RH  046%=      5-min Rain = 0
KCO1 110734Z 25008KT 12/01 A2977 RMK A01 T01220009  RH  046%=      5-min Rain = 0
KCO1 110735Z 24008KT 12/01 A2977 RMK A01 T01210009  RH  046%=      5-min Rain = 0
KCO1 110736Z 22010KT 12/01 A2977 RMK A01 T01210009  RH  046%=      5-min Rain = 0
KCO1 110737Z 24009KT 12/01 A2977 RMK A01 T01230009  RH  046%=      5-min Rain = 0
KCO1 110738Z 24009KT 12/01 A2977 RMK A01 T01240009  RH  045%=      5-min Rain = 0
KCO1 110739Z 23012KT 12/01 A2977 RMK A01 T01240009  RH  045%=      5-min Rain = 0
KCO1 110740Z 22012KT 13/01 A2977 RMK A01 T01270009  RH  045%=      5-min Rain = 0
KCO1 110741Z 23011KT 13/01 A2977 RMK A01 T01280009  RH  044%=      5-min Rain = 0
KCO1 110742Z 23010KT 13/01 A2977 RMK A01 T01280009  RH  044%=      5-min Rain = 0
KCO1 110743Z 23011KT 13/01 A2977 RMK A01 T01270009  RH  044%=      5-min Rain = 0
KCO1 110744Z 23010KT 13/01 A2977 RMK A01 T01270009  RH  044%=      5-min Rain = 0
KCO1 110745Z 23011KT 13/01 A2977 RMK A01 T01270009  RH  044%=      5-min Rain = 0
KCO1 110746Z 22011KT 13/01 A2977 RMK A01 T01270009  RH  044%=      5-min Rain = 0
KCO1 110747Z 23010KT 13/01 A2977 RMK A01 T01270008  RH  044%=      5-min Rain = 0
KCO1 110748Z 23010KT 13/01 A2977 RMK A01 T01270008  RH  044%=      5-min Rain = 0
KCO1 110749Z 23011KT 13/01 A2977 RMK A01 T01270008  RH  044%=      5-min Rain = 0
KCO1 110750Z 23009KT 13/01 A2977 RMK A01 T01280008  RH  044%=      5-min Rain = 0
KCO1 110751Z 24008KT 13/01 A2977 RMK A01 T01280008  RH  044%=      5-min Rain = 0
KCO1 110752Z 24010KT 13/01 A2977 RMK A01 T01280009  RH  044%=      5-min Rain = 0
KCO1 110753Z 24008KT 13/01 A2977 RMK A01 T01280009  RH  044%=      5-min Rain = 0
KCO1 110754Z 24009KT 13/01 A2977 RMK A01 T01280008  RH  044%=      5-min Rain = 0
KCO1 110755Z 24008KT 13/01 A2977 RMK A01 T01290009  RH  044%=      5-min Rain = 0
KCO1 110756Z 25008KT 13/01 A2977 RMK A01 T01300009  RH  044%=      5-min Rain = 0
KCO1 110757Z 25010KT 13/01 A2977 RMK A01 T01300008  RH  043%=      5-min Rain = 0
KCO1 110758Z 24010KT 13/01 A2977 RMK A01 T01300008  RH  043%=      5-min Rain = 0
KCO1 110759Z 25011KT 13/01 A2977 RMK A01 T01310008  RH  043%=      5-min Rain = 0
KCO1 110800Z 25011KT 13/01 A2977 RMK A01 T01310008  RH  043%=      5-min Rain = 0
KCO1 110801Z 24010KT 13/01 A2977 RMK A01 T01310008  RH  043%=      5-min Rain = 0
KCO1 110802Z 25011G16KT 13/01 A2977 RMK A01 T01310008  RH  043%=      5-min Rain = 0
KCO1 110803Z 25012KT 13/01 A2977 RMK A01 T01310007  RH  043%=      5-min Rain = 0
KCO1 110804Z 26012KT 13/01 A2977 RMK A01 T01330007  RH  042%=      5-min Rain = 0
KCO1 110805Z 26012KT 14/01 A2977 RMK A01 T01360006  RH  041%=      5-min Rain = 0
KCO1 110806Z 26013G18KT 14/01 A2977 RMK A01 T01390006  RH  040%=      5-min Rain = 0
KCO1 110807Z 26018KT 14/01 A2977 RMK A01 T01400006  RH  040%=      5-min Rain = 0
KCO1 110808Z 26018KT 14/01 A2977 RMK A01 T01420005  RH  039%=      5-min Rain = 0
KCO1 110809Z 26017KT 14/01 A2977 RMK A01 T01440005  RH  039%=      5-min Rain = 0
KCO1 110810Z 26014KT 14/01 A2977 RMK A01 T01440005  RH  039%=      5-min Rain = 0
KCO1 110811Z 25013G18KT 14/01 A2977 RMK A01 T01440005  RH  039%=      5-min Rain = 0
KCO1 110812Z 25014G19KT 14/01 A2977 RMK A01 T01430006  RH  039%=      5-min Rain = 0
KCO1 110813Z 25016KT 14/01 A2976 RMK A01 T01430006  RH  039%=      5-min Rain = 0
KCO1 110814Z 26013KT 14/01 A2976 RMK A01 T01420005  RH  039%=      5-min Rain = 0
KCO1 110815Z 26015KT 14/01 A2976 RMK A01 T01410005  RH  039%=      5-min Rain = 0
KCO1 110816Z 26013G18KT 14/01 A2976 RMK A01 T01420005  RH  039%=      5-min Rain = 0
KCO1 110817Z 25015KT 14/01 A2976 RMK A01 T01420005  RH  039%=      5-min Rain = 0
KCO1 110818Z 25015KT 14/01 A2976 RMK A01 T01420005  RH  039%=      5-min Rain = 0
KCO1 110819Z 25014KT 14/01 A2976 RMK A01 T01420005  RH  039%=      5-min Rain = 0
KCO1 110820Z 26016G21KT 14/01 A2976 RMK A01 T01420005  RH  039%=      5-min Rain = 0
KCO1 110821Z 26013KT 14/01 A2976 RMK A01 T01420005  RH  039%=      5-min Rain = 0
KCO1 110822Z 26016KT 14/00 A2976 RMK A01 T01420004  RH  039%=      5-min Rain = 0
KCO1 110823Z 26014G20KT 14/00 A2976 RMK A01 T01420004  RH  039%=      5-min Rain = 0
KCO1 110824Z 26013KT 14/00 A2976 RMK A01 T01430004  RH  039%=      5-min Rain = 0
KCO1 110825Z 25015KT 14/01 A2976 RMK A01 T01430005  RH  039%=      5-min Rain = 0
KCO1 110826Z 26016KT 14/00 A2976 RMK A01 T01430004  RH  039%=      5-min Rain = 0
KCO1 110827Z 26017G23KT 14/00 A2976 RMK A01 T01430004  RH  039%=      5-min Rain = 0
KCO1 110828Z 26018KT 14/00 A2976 RMK A01 T01430004  RH  039%=      5-min Rain = 0
KCO1 110829Z 26019G25KT 14/00 A2976 RMK A01 T01430004  RH  038%=      5-min Rain = 0
KCO1 110830Z 26018G28KT 14/00 A2976 RMK A01 T01440004  RH  038%=      5-min Rain = 0
KCO1 110831Z 26019G24KT 15/00 A2976 RMK A01 T01450004  RH  038%=      5-min Rain = 0
KCO1 110832Z 26021G28KT 15/00 A2976 RMK A01 T01450004  RH  038%=      5-min Rain = 0
KCO1 110833Z 26020KT 15/00 A2976 RMK A01 T01460004  RH  038%=      5-min Rain = 0
KCO1 110834Z 26018G24KT 15/00 A2976 RMK A01 T01460004  RH  038%=      5-min Rain = 0
KCO1 110835Z 26017KT 15/00 A2976 RMK A01 T01460004  RH  038%=      5-min Rain = 0
KCO1 110836Z 26023G28KT 15/00 A2976 RMK A01 T01460004  RH  038%=      5-min Rain = 0
KCO1 110837Z 26023G29KT 15/00 A2976 RMK A01 T01470004  RH  038%=      5-min Rain = 0
KCO1 110838Z 27025G30KT 15/00 A2976 RMK A01 T01470004  RH  038%=      5-min Rain = 0
KCO1 110839Z 26023G32KT 15/00 A2976 RMK A01 T01470004  RH  038%=      5-min Rain = 0
KCO1 110840Z 26017KT 15/01 A2976 RMK A01 T01470005  RH  038%=      5-min Rain = 0
KCO1 110841Z 27020G27KT 15/00 A2976 RMK A01 T01470004  RH  038%=      5-min Rain = 0
KCO1 110842Z 26022G29KT 15/01 A2976 RMK A01 T01470005  RH  038%=      5-min Rain = 0
KCO1 110843Z 26019G25KT 15/01 A2976 RMK A01 T01470005  RH  038%=      5-min Rain = 0
KCO1 110844Z 26021G27KT 15/01 A2976 RMK A01 T01470005  RH  038%=      5-min Rain = 0
KCO1 110845Z 27021G26KT 15/01 A2976 RMK A01 T01460005  RH  038%=      5-min Rain = 0
KCO1 110846Z 26021KT 15/01 A2976 RMK A01 T01460005  RH  038%=      5-min Rain = 0
KCO1 110847Z 26021G26KT 15/01 A2976 RMK A01 T01460005  RH  038%=      5-min Rain = 0
KCO1 110848Z 26018G24KT 15/01 A2977 RMK A01 T01470005  RH  038%=      5-min Rain = 0
KCO1 110849Z 26021G29KT 15/01 A2976 RMK A01 T01460005  RH  038%=      5-min Rain = 0
KCO1 110850Z 26017KT 15/01 A2977 RMK A01 T01460005  RH  038%=      5-min Rain = 0
KCO1 110851Z 26017KT 15/01 A2976 RMK A01 T01460006  RH  038%=      5-min Rain = 0
KCO1 110852Z 26017G23KT 15/01 A2976 RMK A01 T01450005  RH  039%=      5-min Rain = 0
KCO1 110853Z 26015G20KT 15/01 A2976 RMK A01 T01450006  RH  039%=      5-min Rain = 0
KCO1 110854Z 26016G21KT 14/01 A2976 RMK A01 T01440006  RH  039%=      5-min Rain = 0
KCO1 110855Z 27016KT 14/01 A2976 RMK A01 T01440006  RH  039%=      5-min Rain = 0
KCO1 110856Z 27019KT 14/01 A2976 RMK A01 T01440006  RH  039%=      5-min Rain = 0
KCO1 110857Z 27016KT 14/01 A2976 RMK A01 T01440006  RH  039%=      5-min Rain = 0
KCO1 110858Z 26018G24KT 14/01 A2976 RMK A01 T01430006  RH  039%=      5-min Rain = 0
KCO1 110859Z 27018KT 14/01 A2976 RMK A01 T01430006  RH  039%=      5-min Rain = 0
KCO1 110900Z 27018G24KT 14/01 A2976 RMK A01 T01430006  RH  039%=      5-min Rain = 0
KCO1 110901Z 26019KT 14/01 A2976 RMK A01 T01430006  RH  039%=      5-min Rain = 0
KCO1 110902Z 26017KT 14/01 A2976 RMK A01 T01430006  RH  039%=      5-min Rain = 0
KCO1 110903Z 26017KT 14/01 A2976 RMK A01 T01430006  RH  039%=      5-min Rain = 0
KCO1 110904Z 26018G24KT 14/01 A2976 RMK A01 T01430006  RH  039%=      5-min Rain = 0
KCO1 110905Z 26021G28KT 14/01 A2976 RMK A01 T01430006  RH  039%=      5-min Rain = 0
KCO1 110906Z 26019KT 14/01 A2976 RMK A01 T01440006  RH  039%=      5-min Rain = 0
KCO1 110907Z 26021G28KT 14/01 A2976 RMK A01 T01430006  RH  039%=      5-min Rain = 0
KCO1 110908Z 26022G27KT 14/01 A2976 RMK A01 T01440006  RH  039%=      5-min Rain = 0
KCO1 110909Z 26023KT 14/01 A2976 RMK A01 T01440006  RH  039%=      5-min Rain = 0
KCO1 110910Z 26022G27KT 14/01 A2976 RMK A01 T01440006  RH  039%=      5-min Rain = 0
KCO1 110911Z 26025G30KT 14/01 A2976 RMK A01 T01440006  RH  039%=      5-min Rain = 0
KCO1 110912Z 26022G27KT 14/01 A2976 RMK A01 T01440006  RH  039%=      5-min Rain = 0
KCO1 110913Z 26020KT 14/01 A2976 RMK A01 T01440006  RH  039%=      5-min Rain = 0
KCO1 110914Z 26022G28KT 14/01 A2976 RMK A01 T01440006  RH  039%=      5-min Rain = 0
KCO1 110915Z 26020G25KT 14/01 A2976 RMK A01 T01440006  RH  039%=      5-min Rain = 0
KCO1 110916Z 26018G24KT 14/01 A2976 RMK A01 T01440006  RH  039%=      5-min Rain = 0
KCO1 110917Z 26024G31KT 14/01 A2976 RMK A01 T01440007  RH  039%=      5-min Rain = 0
KCO1 110918Z 26028G36KT 14/01 A2976 RMK A01 T01430006  RH  039%=      5-min Rain = 0
KCO1 110919Z 26025G32KT 14/01 A2976 RMK A01 T01440007  RH  039%=      5-min Rain = 0
KCO1 110920Z 27022G29KT 14/01 A2976 RMK A01 T01440007  RH  039%=      5-min Rain = 0
KCO1 110921Z 27028G35KT 14/01 A2976 RMK A01 T01430007  RH  039%=      5-min Rain = 0
KCO1 110922Z 26023G28KT 14/01 A2976 RMK A01 T01430007  RH  040%=      5-min Rain = 0
KCO1 110923Z 27026G31KT 14/01 A2976 RMK A01 T01420007  RH  040%=      5-min Rain = 0
KCO1 110924Z 26024G30KT 14/01 A2976 RMK A01 T01420007  RH  040%=      5-min Rain = 0
KCO1 110925Z 26021KT 14/01 A2976 RMK A01 T01420008  RH  040%=      5-min Rain = 0
KCO1 110926Z 26021KT 14/01 A2976 RMK A01 T01420008  RH  040%=      5-min Rain = 0
KCO1 110927Z 26023G31KT 14/01 A2976 RMK A01 T01420008  RH  040%=      5-min Rain = 0
KCO1 110928Z 26027KT 14/01 A2976 RMK A01 T01420008  RH  040%=      5-min Rain = 0
KCO1 110929Z 27028G33KT 14/01 A2976 RMK A01 T01420008  RH  040%=      5-min Rain = 0
KCO1 110930Z 26024G29KT 14/01 A2976 RMK A01 T01420008  RH  040%=      5-min Rain = 0
KCO1 110931Z 27023G29KT 14/01 A2976 RMK A01 T01410008  RH  040%=      5-min Rain = 0
KCO1 110932Z 26020G25KT 14/01 A2976 RMK A01 T01410008  RH  040%=      5-min Rain = 0
KCO1 110933Z 27024G29KT 14/01 A2976 RMK A01 T01400008  RH  040%=      5-min Rain = 0
KCO1 110934Z 26018G24KT 14/01 A2977 RMK A01 T01400008  RH  041%=      5-min Rain = 0
KCO1 110935Z 26020G25KT 14/01 A2976 RMK A01 T01390008  RH  041%=      5-min Rain = 0
KCO1 110936Z 27021G26KT 14/01 A2977 RMK A01 T01390008  RH  041%=      5-min Rain = 0
KCO1 110937Z 26020KT 14/01 A2977 RMK A01 T01390008  RH  041%=      5-min Rain = 0
KCO1 110938Z 27018KT 14/01 A2977 RMK A01 T01390009  RH  041%=      5-min Rain = 0
KCO1 110939Z 27018KT 14/01 A2977 RMK A01 T01380008  RH  041%=      5-min Rain = 0
KCO1 110940Z 27020G25KT 14/01 A2977 RMK A01 T01370009  RH  041%=      5-min Rain = 0
KCO1 110941Z 26018KT 14/01 A2977 RMK A01 T01370009  RH  042%=      5-min Rain = 0
KCO1 110942Z 27019G25KT 14/01 A2977 RMK A01 T01360009  RH  042%=      5-min Rain = 0
KCO1 110943Z 27020G25KT 14/01 A2977 RMK A01 T01360009  RH  042%=      5-min Rain = 0
KCO1 110944Z 27023G28KT 14/01 A2977 RMK A01 T01370009  RH  042%=      5-min Rain = 0
KCO1 110945Z 27019KT 14/01 A2977 RMK A01 T01370009  RH  042%=      5-min Rain = 0
KCO1 110946Z 27021KT 14/01 A2977 RMK A01 T01370009  RH  042%=      5-min Rain = 0
KCO1 110947Z 27019KT 14/01 A2977 RMK A01 T01370009  RH  042%=      5-min Rain = 0
KCO1 110948Z 26020G26KT 14/01 A2977 RMK A01 T01370009  RH  042%=      5-min Rain = 0
KCO1 110949Z 27019G25KT 14/01 A2977 RMK A01 T01370009  RH  042%=      5-min Rain = 0
KCO1 110950Z 27022G28KT 14/01 A2977 RMK A01 T01370009  RH  042%=      5-min Rain = 0
KCO1 110951Z 27023G28KT 14/01 A2977 RMK A01 T01370009  RH  042%=      5-min Rain = 0
KCO1 110952Z 27020G27KT 14/01 A2977 RMK A01 T01370009  RH  042%=      5-min Rain = 0
KCO1 110953Z 27023G30KT 14/01 A2977 RMK A01 T01370009  RH  042%=      5-min Rain = 0
KCO1 110954Z 27024KT 14/01 A2977 RMK A01 T01380010  RH  042%=      5-min Rain = 0
KCO1 110955Z 27024G30KT 14/01 A2977 RMK A01 T01380009  RH  042%=      5-min Rain = 0
KCO1 110956Z 27022G27KT 14/01 A2978 RMK A01 T01380009  RH  041%=      5-min Rain = 0
KCO1 110957Z 27025G32KT 14/01 A2978 RMK A01 T01380009  RH  042%=      5-min Rain = 0
KCO1 110958Z 27020KT 14/01 A2978 RMK A01 T01380010  RH  042%=      5-min Rain = 0
KCO1 110959Z 27018KT 14/01 A2978 RMK A01 T01370010  RH  042%=      5-min Rain = 0
KCO1 111000Z 27017KT 14/01 A2978 RMK A01 T01370010  RH  042%=      5-min Rain = 0
KCO1 111001Z 27019G26KT 14/01 A2978 RMK A01 T01370010  RH  042%=      5-min Rain = 0
KCO1 111002Z 27021KT 14/01 A2977 RMK A01 T01360010  RH  042%=      5-min Rain = 0
KCO1 111003Z 27020KT 14/01 A2978 RMK A01 T01370010  RH  042%=      5-min Rain = 0
KCO1 111004Z 27017KT 14/01 A2978 RMK A01 T01370010  RH  042%=      5-min Rain = 0
KCO1 111005Z 27020G26KT 14/01 A2978 RMK A01 T01370010  RH  042%=      5-min Rain = 0
KCO1 111006Z 27021G26KT 14/01 A2978 RMK A01 T01370010  RH  042%=      5-min Rain = 0
KCO1 111007Z 27020G25KT 14/01 A2978 RMK A01 T01370010  RH  042%=      5-min Rain = 0
KCO1 111008Z 27020G25KT 14/01 A2978 RMK A01 T01370010  RH  042%=      5-min Rain = 0
KCO1 111009Z 28021G29KT 14/01 A2978 RMK A01 T01370010  RH  042%=      5-min Rain = 0
KCO1 111010Z 28022G28KT 14/01 A2978 RMK A01 T01370011  RH  042%=      5-min Rain = 0
KCO1 111011Z 28023KT 14/01 A2978 RMK A01 T01370010  RH  042%=      5-min Rain = 0
KCO1 111012Z 28022KT 14/01 A2978 RMK A01 T01370011  RH  042%=      5-min Rain = 0
KCO1 111013Z 28017KT 14/01 A2978 RMK A01 T01370010  RH  042%=      5-min Rain = 0
KCO1 111014Z 28023G28KT 14/01 A2978 RMK A01 T01370010  RH  042%=      5-min Rain = 0
KCO1 111015Z 28020G25KT 14/01 A2978 RMK A01 T01370011  RH  042%=      5-min Rain = 0
KCO1 111016Z 28017KT 14/01 A2978 RMK A01 T01370011  RH  042%=      5-min Rain = 0
KCO1 111017Z 28019G25KT 14/01 A2978 RMK A01 T01370011  RH  042%=      5-min Rain = 0
KCO1 111018Z 28022G27KT 14/01 A2978 RMK A01 T01370011  RH  042%=      5-min Rain = 0
KCO1 111019Z 28021G26KT 14/01 A2978 RMK A01 T01370011  RH  042%=      5-min Rain = 0
KCO1 111020Z 28025G31KT 14/01 A2978 RMK A01 T01370011  RH  042%=      5-min Rain = 0
KCO1 111021Z 28023KT 14/01 A2978 RMK A01 T01370011  RH  042%=      5-min Rain = 0
KCO1 111022Z 28024G30KT 14/01 A2978 RMK A01 T01370011  RH  042%=      5-min Rain = 0
KCO1 111023Z 28022G27KT 14/01 A2978 RMK A01 T01370011  RH  042%=      5-min Rain = 0
KCO1 111024Z 28020G25KT 14/01 A2978 RMK A01 T01370011  RH  042%=      5-min Rain = 0
KCO1 111025Z 28019G24KT 14/01 A2978 RMK A01 T01360011  RH  042%=      5-min Rain = 0
KCO1 111026Z 28022KT 14/01 A2978 RMK A01 T01360011  RH  043%=      5-min Rain = 0
KCO1 111027Z 28020KT 14/01 A2978 RMK A01 T01360011  RH  043%=      5-min Rain = 0
KCO1 111028Z 28018G23KT 14/01 A2978 RMK A01 T01350011  RH  043%=      5-min Rain = 0
KCO1 111029Z 28021G27KT 14/01 A2978 RMK A01 T01350011  RH  043%=      5-min Rain = 0
KCO1 111030Z 28024G29KT 14/01 A2978 RMK A01 T01350011  RH  043%=      5-min Rain = 0
KCO1 111031Z 28023G29KT 14/01 A2978 RMK A01 T01350011  RH  043%=      5-min Rain = 0
KCO1 111032Z 28020G29KT 14/01 A2978 RMK A01 T01360011  RH  043%=      5-min Rain = 0
KCO1 111033Z 28022G29KT 14/01 A2978 RMK A01 T01350011  RH  043%=      5-min Rain = 0
KCO1 111034Z 28022G31KT 14/01 A2978 RMK A01 T01350011  RH  043%=      5-min Rain = 0
KCO1 111035Z 28024G30KT 14/01 A2978 RMK A01 T01350011  RH  043%=      5-min Rain = 0
KCO1 111036Z 27024G30KT 14/01 A2978 RMK A01 T01350011  RH  043%=      5-min Rain = 0
KCO1 111037Z 28022G27KT 14/01 A2978 RMK A01 T01350011  RH  043%=      5-min Rain = 0
KCO1 111038Z 28022G29KT 14/01 A2978 RMK A01 T01350011  RH  043%=      5-min Rain = 0
KCO1 111039Z 28021KT 13/01 A2979 RMK A01 T01340011  RH  043%=      5-min Rain = 0
KCO1 111040Z 28022G28KT 13/01 A2979 RMK A01 T01340011  RH  043%=      5-min Rain = 0
KCO1 111041Z 28021KT 13/01 A2979 RMK A01 T01340011  RH  043%=      5-min Rain = 0
KCO1 111042Z 28020KT 13/01 A2979 RMK A01 T01340011  RH  043%=      5-min Rain = 0
KCO1 111043Z 28020G25KT 13/01 A2979 RMK A01 T01330011  RH  043%=      5-min Rain = 0
KCO1 111044Z 28018KT 13/01 A2979 RMK A01 T01330011  RH  043%=      5-min Rain = 0
KCO1 111045Z 28016KT 13/01 A2979 RMK A01 T01330011  RH  043%=      5-min Rain = 0
KCO1 111046Z 28019G24KT 13/01 A2979 RMK A01 T01320011  RH  044%=      5-min Rain = 0
KCO1 111047Z 28019KT 13/01 A2979 RMK A01 T01320011  RH  044%=      5-min Rain = 0
KCO1 111048Z 28017KT 13/01 A2979 RMK A01 T01320011  RH  044%=      5-min Rain = 0
KCO1 111049Z 28018KT 13/01 A2979 RMK A01 T01320012  RH  044%=      5-min Rain = 0
KCO1 111050Z 28018G25KT 13/01 A2979 RMK A01 T01310012  RH  044%=      5-min Rain = 0
KCO1 111051Z 28017G22KT 13/01 A2979 RMK A01 T01310012  RH  044%=      5-min Rain = 0
KCO1 111052Z 28018G23KT 13/01 A2979 RMK A01 T01310012  RH  044%=      5-min Rain = 0
KCO1 111053Z 28017G23KT 13/01 A2979 RMK A01 T01310012  RH  044%=      5-min Rain = 0
KCO1 111054Z 29015G20KT 13/01 A2979 RMK A01 T01310012  RH  044%=      5-min Rain = 0
KCO1 111055Z 28017KT 13/01 A2979 RMK A01 T01300012  RH  044%=      5-min Rain = 0
KCO1 111056Z 28020G25KT 13/01 A2979 RMK A01 T01300013  RH  045%=      5-min Rain = 0
KCO1 111057Z 28018G23KT 13/01 A2979 RMK A01 T01300012  RH  045%=      5-min Rain = 0
KCO1 111058Z 28018KT 13/01 A2979 RMK A01 T01300013  RH  045%=      5-min Rain = 0
KCO1 111059Z 28017G23KT 13/01 A2979 RMK A01 T01300012  RH  045%=      5-min Rain = 0
KCO1 111100Z 28020G25KT 13/01 A2979 RMK A01 T01300013  RH  045%=      5-min Rain = 0
KCO1 111101Z 28018G23KT 13/01 A298 RMK A01 T01290013  RH  045%=      5-min Rain = 0
KCO1 111102Z 28018G24KT 13/01 A298 RMK A01 T01300013  RH  045%=      5-min Rain = 0
KCO1 111103Z 28018G25KT 13/01 A298 RMK A01 T01300013  RH  045%=      5-min Rain = 0
KCO1 111104Z 28019KT 13/01 A298 RMK A01 T01300013  RH  045%=      5-min Rain = 0
KCO1 111105Z 28017KT 13/01 A298 RMK A01 T01300013  RH  045%=      5-min Rain = 0
KCO1 111106Z 28020G25KT 13/01 A298 RMK A01 T01300014  RH  045%=      5-min Rain = 0
KCO1 111107Z 27019G25KT 13/01 A298 RMK A01 T01300014  RH  045%=      5-min Rain = 0
KCO1 111108Z 28018G23KT 13/01 A298 RMK A01 T01300014  RH  045%=      5-min Rain = 0
KCO1 111109Z 28019KT 13/01 A298 RMK A01 T01300014  RH  045%=      5-min Rain = 0
KCO1 111110Z 28017G23KT 13/01 A298 RMK A01 T01300014  RH  045%=      5-min Rain = 0
KCO1 111111Z 28017KT 13/01 A298 RMK A01 T01300014  RH  045%=      5-min Rain = 0
KCO1 111112Z 28017KT 13/01 A298 RMK A01 T01300014  RH  045%=      5-min Rain = 0
KCO1 111113Z 27017KT 13/01 A298 RMK A01 T01300014  RH  045%=      5-min Rain = 0
KCO1 111114Z 28015KT 13/01 A298 RMK A01 T01300014  RH  045%=      5-min Rain = 0
KCO1 111115Z 27016G21KT 13/01 A298 RMK A01 T01300014  RH  045%=      5-min Rain = 0
KCO1 111116Z 27016KT 13/01 A298 RMK A01 T01300014  RH  045%=      5-min Rain = 0
KCO1 111117Z 28019KT 13/01 A298 RMK A01 T01310014  RH  045%=      5-min Rain = 0
KCO1 111118Z 27016KT 13/01 A298 RMK A01 T01310014  RH  045%=      5-min Rain = 0
KCO1 111119Z 27015KT 13/01 A298 RMK A01 T01310014  RH  045%=      5-min Rain = 0
KCO1 111120Z 28015G20KT 13/01 A298 RMK A01 T01310014  RH  045%=      5-min Rain = 0
KCO1 111121Z 28014KT 13/01 A298 RMK A01 T01310014  RH  045%=      5-min Rain = 0
KCO1 111122Z 28013KT 13/01 A298 RMK A01 T01310014  RH  045%=      5-min Rain = 0
KCO1 111123Z 28015KT 13/01 A298 RMK A01 T01300013  RH  045%=      5-min Rain = 0
KCO1 111124Z 27015KT 13/01 A298 RMK A01 T01300013  RH  045%=      5-min Rain = 0
KCO1 111125Z 28015KT 13/01 A298 RMK A01 T01300013  RH  045%=      5-min Rain = 0
KCO1 111126Z 28015KT 13/01 A298 RMK A01 T01310013  RH  045%=      5-min Rain = 0
KCO1 111127Z 27014KT 13/01 A298 RMK A01 T01310013  RH  044%=      5-min Rain = 0
KCO1 111128Z 28015KT 13/01 A298 RMK A01 T01320013  RH  044%=      5-min Rain = 0
KCO1 111129Z 28015KT 13/01 A298 RMK A01 T01310013  RH  044%=      5-min Rain = 0
KCO1 111130Z 28017KT 13/01 A298 RMK A01 T01310013  RH  044%=      5-min Rain = 0
KCO1 111131Z 28018KT 13/01 A298 RMK A01 T01310012  RH  044%=      5-min Rain = 0
KCO1 111132Z 28015G20KT 13/01 A298 RMK A01 T01320013  RH  044%=      5-min Rain = 0
KCO1 111133Z 28014G20KT 13/01 A2981 RMK A01 T01320013  RH  044%=      5-min Rain = 0
KCO1 111134Z 28019KT 13/01 A2981 RMK A01 T01320013  RH  044%=      5-min Rain = 0
KCO1 111135Z 28017KT 13/01 A2981 RMK A01 T01320012  RH  044%=      5-min Rain = 0
KCO1 111136Z 28016KT 13/01 A2981 RMK A01 T01330013  RH  044%=      5-min Rain = 0
KCO1 111137Z 28013KT 13/01 A2981 RMK A01 T01330013  RH  044%=      5-min Rain = 0
KCO1 111138Z 27015KT 13/01 A2981 RMK A01 T01330013  RH  044%=      5-min Rain = 0
KCO1 111139Z 28015G20KT 13/01 A2981 RMK A01 T01330013  RH  044%=      5-min Rain = 0
KCO1 111140Z 28017KT 13/01 A2981 RMK A01 T01320013  RH  044%=      5-min Rain = 0
KCO1 111141Z 27017KT 13/01 A2981 RMK A01 T01320013  RH  044%=      5-min Rain = 0
KCO1 111142Z 28015KT 13/01 A2981 RMK A01 T01320013  RH  044%=      5-min Rain = 0
KCO1 111143Z 28013KT 13/01 A2981 RMK A01 T01320013  RH  044%=      5-min Rain = 0
KCO1 111144Z 28014KT 13/01 A2981 RMK A01 T01310013  RH  044%=      5-min Rain = 0
KCO1 111145Z 27018G26KT 13/01 A2981 RMK A01 T01310013  RH  044%=      5-min Rain = 0
KCO1 111146Z 28023KT 13/01 A2981 RMK A01 T01310013  RH  044%=      5-min Rain = 0
KCO1 111147Z 28020G25KT 13/01 A2981 RMK A01 T01330014  RH  044%=      5-min Rain = 0
KCO1 111148Z 28020G26KT 13/01 A2981 RMK A01 T01330014  RH  044%=      5-min Rain = 0
KCO1 111149Z 28019G24KT 13/01 A2981 RMK A01 T01340014  RH  044%=      5-min Rain = 0
KCO1 111150Z 28021G28KT 13/01 A2981 RMK A01 T01330014  RH  044%=      5-min Rain = 0
KCO1 111151Z 28021G26KT 13/01 A2981 RMK A01 T01330014  RH  044%=      5-min Rain = 0
KCO1 111152Z 28018KT 13/01 A2981 RMK A01 T01330014  RH  044%=      5-min Rain = 0
KCO1 111153Z 27018KT 13/02 A2981 RMK A01 T01330015  RH  045%=      5-min Rain = 0
KCO1 111154Z 28017G25KT 13/02 A2981 RMK A01 T01320015  RH  045%=      5-min Rain = 0
KCO1 111155Z 28022KT 13/02 A2981 RMK A01 T01320015  RH  045%=      5-min Rain = 0
KCO1 111156Z 27020G27KT 13/02 A2981 RMK A01 T01320015  RH  045%=      5-min Rain = 0
KCO1 111157Z 27022G27KT 13/02 A2981 RMK A01 T01320015  RH  045%=      5-min Rain = 0
KCO1 111158Z 27024G29KT 13/02 A2981 RMK A01 T01330015  RH  045%=      5-min Rain = 0
KCO1 111159Z 28023KT 13/02 A2981 RMK A01 T01330016  RH  045%=      5-min Rain = 0
KCO1 111200Z 28021KT 13/02 A2981 RMK A01 T01330016  RH  045%=      5-min Rain = 0
KCO1 111201Z 27021G27KT 13/02 A2981 RMK A01 T01330016  RH  045%=      5-min Rain = 0
KCO1 111202Z 27020G25KT 13/02 A2981 RMK A01 T01330016  RH  045%=      5-min Rain = 0
KCO1 111203Z 28021G27KT 13/02 A2981 RMK A01 T01330016  RH  045%=      5-min Rain = 0
KCO1 111204Z 27023KT 13/02 A2981 RMK A01 T01320016  RH  045%=      5-min Rain = 0
KCO1 111205Z 27020G27KT 13/02 A2981 RMK A01 T01320017  RH  045%=      5-min Rain = 0
KCO1 111206Z 28021KT 13/02 A2981 RMK A01 T01320017  RH  045%=      5-min Rain = 0
KCO1 111207Z 28018KT 13/02 A2981 RMK A01 T01320017  RH  045%=      5-min Rain = 0
KCO1 111208Z 27019KT 13/02 A2981 RMK A01 T01320017  RH  046%=      5-min Rain = 0
KCO1 111209Z 27021G29KT 13/02 A2981 RMK A01 T01310017  RH  046%=      5-min Rain = 0
KCO1 111210Z 27020G25KT 13/02 A2981 RMK A01 T01310017  RH  046%=      5-min Rain = 0
KCO1 111211Z 27021G27KT 13/02 A2982 RMK A01 T01310017  RH  046%=      5-min Rain = 0
KCO1 111212Z 28023KT 13/02 A2981 RMK A01 T01310017  RH  046%=      5-min Rain = 0
KCO1 111213Z 28021KT 13/02 A2982 RMK A01 T01320017  RH  046%=      5-min Rain = 0
KCO1 111214Z 28022KT 13/02 A2982 RMK A01 T01320017  RH  046%=      5-min Rain = 0
KCO1 111215Z 28022KT 13/02 A2982 RMK A01 T01320017  RH  046%=      5-min Rain = 0
KCO1 111216Z 28023KT 13/02 A2982 RMK A01 T01320018  RH  046%=      5-min Rain = 0
KCO1 111217Z 27019G24KT 13/02 A2982 RMK A01 T01320018  RH  046%=      5-min Rain = 0
KCO1 111218Z 28020G25KT 13/02 A2982 RMK A01 T01310018  RH  046%=      5-min Rain = 0
KCO1 111219Z 27020KT 13/02 A2982 RMK A01 T01310018  RH  046%=      5-min Rain = 0
KCO1 111220Z 28019KT 13/02 A2982 RMK A01 T01310018  RH  046%=      5-min Rain = 0
KCO1 111221Z 28020KT 13/02 A2982 RMK A01 T01310018  RH  046%=      5-min Rain = 0
KCO1 111222Z 27019KT 13/02 A2982 RMK A01 T01310018  RH  046%=      5-min Rain = 0
KCO1 111223Z 28017KT 13/02 A2982 RMK A01 T01310018  RH  046%=      5-min Rain = 0
KCO1 111224Z 28017G22KT 13/02 A2983 RMK A01 T01300018  RH  046%=      5-min Rain = 0
KCO1 111225Z 27018G24KT 13/02 A2983 RMK A01 T01300018  RH  046%=      5-min Rain = 0
KCO1 111226Z 28018KT 13/02 A2983 RMK A01 T01300018  RH  046%=      5-min Rain = 0
KCO1 111227Z 28015KT 13/02 A2983 RMK A01 T01300018  RH  046%=      5-min Rain = 0
KCO1 111228Z 28023KT 13/02 A2983 RMK A01 T01300018  RH  047%=      5-min Rain = 0
KCO1 111229Z 27020G25KT 13/02 A2983 RMK A01 T01310019  RH  046%=      5-min Rain = 0
KCO1 111230Z 27021KT 13/02 A2983 RMK A01 T01310019  RH  046%=      5-min Rain = 0
KCO1 111231Z 27019G25KT 13/02 A2983 RMK A01 T01310018  RH  046%=      5-min Rain = 0
KCO1 111232Z 27020KT 13/02 A2983 RMK A01 T01310019  RH  046%=      5-min Rain = 0
KCO1 111233Z 28020KT 13/02 A2983 RMK A01 T01310019  RH  046%=      5-min Rain = 0
KCO1 111234Z 27019KT 13/02 A2983 RMK A01 T01310019  RH  046%=      5-min Rain = 0
KCO1 111235Z 28016KT 13/02 A2983 RMK A01 T01320019  RH  046%=      5-min Rain = 0
KCO1 111236Z 28017G23KT 13/02 A2983 RMK A01 T01310019  RH  046%=      5-min Rain = 0
KCO1 111237Z 28019G24KT 13/02 A2983 RMK A01 T01310019  RH  047%=      5-min Rain = 0
KCO1 111238Z 28019G24KT 13/02 A2984 RMK A01 T01310019  RH  046%=      5-min Rain = 0
KCO1 111239Z 28015KT 13/02 A2984 RMK A01 T01310019  RH  046%=      5-min Rain = 0
KCO1 111240Z 27021G26KT 13/02 A2984 RMK A01 T01310019  RH  047%=      5-min Rain = 0
KCO1 111241Z 28020G25KT 13/02 A2984 RMK A01 T01310019  RH  047%=      5-min Rain = 0
KCO1 111242Z 28020KT 13/02 A2984 RMK A01 T01310019  RH  046%=      5-min Rain = 0
KCO1 111243Z 27020G25KT 13/02 A2984 RMK A01 T01320019  RH  046%=      5-min Rain = 0
KCO1 111244Z 28020KT 13/02 A2984 RMK A01 T01310019  RH  046%=      5-min Rain = 0
KCO1 111245Z 28021G27KT 13/02 A2984 RMK A01 T01320020  RH  047%=      5-min Rain = 0
KCO1 111246Z 28021KT 13/02 A2984 RMK A01 T01310020  RH  047%=      5-min Rain = 0
KCO1 111247Z 28020G26KT 13/02 A2984 RMK A01 T01320020  RH  047%=      5-min Rain = 0
KCO1 111248Z 28022KT 13/02 A2984 RMK A01 T01320020  RH  047%=      5-min Rain = 0
KCO1 111249Z 28022G29KT 13/02 A2984 RMK A01 T01320020  RH  047%=      5-min Rain = 0
KCO1 111250Z 27018G26KT 13/02 A2985 RMK A01 T01320021  RH  047%=      5-min Rain = 0
KCO1 111251Z 28022G27KT 13/02 A2985 RMK A01 T01320021  RH  047%=      5-min Rain = 0
KCO1 111252Z 28018G23KT 13/02 A2985 RMK A01 T01310021  RH  047%=      5-min Rain = 0
KCO1 111253Z 27021KT 13/02 A2985 RMK A01 T01310022  RH  047%=      5-min Rain = 0
KCO1 111254Z 28022G27KT 13/02 A2985 RMK A01 T01310022  RH  047%=      5-min Rain = 0
KCO1 111255Z 28018G24KT 13/02 A2985 RMK A01 T01310022  RH  047%=      5-min Rain = 0
KCO1 111256Z 28017KT 13/02 A2985 RMK A01 T01310022  RH  047%=      5-min Rain = 0
KCO1 111257Z 28017KT 13/02 A2985 RMK A01 T01310022  RH  047%=      5-min Rain = 0
KCO1 111258Z 27018KT 13/02 A2985 RMK A01 T01310022  RH  048%=      5-min Rain = 0
KCO1 111259Z 28018G23KT 13/02 A2985 RMK A01 T01310022  RH  048%=      5-min Rain = 0
KCO1 111300Z 27021G27KT 13/02 A2985 RMK A01 T01310022  RH  048%=      5-min Rain = 0
KCO1 111301Z 27020KT 13/02 A2985 RMK A01 T01310023  RH  048%=      5-min Rain = 0
KCO1 111302Z 27017G28KT 13/02 A2986 RMK A01 T01300022  RH  048%=      5-min Rain = 0
KCO1 111303Z 28020KT 13/02 A2985 RMK A01 T01300022  RH  048%=      5-min Rain = 0
KCO1 111304Z 28023KT 13/02 A2985 RMK A01 T01300022  RH  048%=      5-min Rain = 0
KCO1 111305Z 27018KT 13/02 A2986 RMK A01 T01300022  RH  048%=      5-min Rain = 0
KCO1 111306Z 28020KT 13/02 A2986 RMK A01 T01300022  RH  048%=      5-min Rain = 0
KCO1 111307Z 28017KT 13/02 A2986 RMK A01 T01300023  RH  048%=      5-min Rain = 0
KCO1 111308Z 28018KT 13/02 A2986 RMK A01 T01300023  RH  048%=      5-min Rain = 0
KCO1 111309Z 28018KT 13/02 A2986 RMK A01 T01300023  RH  048%=      5-min Rain = 0
KCO1 111310Z 28019KT 13/02 A2986 RMK A01 T01300023  RH  048%=      5-min Rain = 0
KCO1 111311Z 28016KT 13/02 A2986 RMK A01 T01300023  RH  048%=      5-min Rain = 0
KCO1 111312Z 28017KT 13/02 A2986 RMK A01 T01300023  RH  048%=      5-min Rain = 0
KCO1 111313Z 28019KT 13/02 A2986 RMK A01 T01300023  RH  048%=      5-min Rain = 0
KCO1 111314Z 28017G22KT 13/02 A2987 RMK A01 T01300023  RH  048%=      5-min Rain = 0
KCO1 111315Z 27017KT 13/02 A2987 RMK A01 T01300023  RH  048%=      5-min Rain = 0
KCO1 111316Z 27020KT 13/02 A2987 RMK A01 T01300023  RH  048%=      5-min Rain = 0
KCO1 111317Z 28017KT 13/02 A2987 RMK A01 T01300022  RH  048%=      5-min Rain = 0
KCO1 111318Z 27019KT 13/02 A2987 RMK A01 T01300022  RH  048%=      5-min Rain = 0
KCO1 111319Z 28019G24KT 13/02 A2987 RMK A01 T01300022  RH  048%=      5-min Rain = 0
KCO1 111320Z 28017KT 13/02 A2987 RMK A01 T01300023  RH  048%=      5-min Rain = 0
KCO1 111321Z 28017G24KT 13/02 A2987 RMK A01 T01290022  RH  048%=      5-min Rain = 0
KCO1 111322Z 28017G23KT 13/02 A2987 RMK A01 T01290023  RH  048%=      5-min Rain = 0
KCO1 111323Z 27019KT 13/02 A2987 RMK A01 T01290023  RH  048%=      5-min Rain = 0
KCO1 111324Z 28016KT 13/02 A2987 RMK A01 T01290022  RH  048%=      5-min Rain = 0
KCO1 111325Z 28016KT 13/02 A2987 RMK A01 T01290023  RH  048%=      5-min Rain = 0
KCO1 111326Z 27016KT 13/02 A2987 RMK A01 T01290022  RH  048%=      5-min Rain = 0
KCO1 111327Z 28019KT 13/02 A2987 RMK A01 T01290022  RH  048%=      5-min Rain = 0
KCO1 111328Z 28018KT 13/02 A2987 RMK A01 T01290022  RH  048%=      5-min Rain = 0
KCO1 111329Z 28014G20KT 13/02 A2987 RMK A01 T01290022  RH  048%=      5-min Rain = 0
KCO1 111330Z 28020KT 13/02 A2987 RMK A01 T01280022  RH  048%=      5-min Rain = 0
KCO1 111331Z 28018KT 13/02 A2987 RMK A01 T01290022  RH  048%=      5-min Rain = 0
KCO1 111332Z 28016KT 13/02 A2988 RMK A01 T01300022  RH  048%=      5-min Rain = 0
KCO1 111333Z 28019G24KT 13/02 A2988 RMK A01 T01300022  RH  048%=      5-min Rain = 0
KCO1 111334Z 28017KT 13/02 A2988 RMK A01 T01290022  RH  048%=      5-min Rain = 0
KCO1 111335Z 28016G21KT 13/02 A2988 RMK A01 T01300022  RH  048%=      5-min Rain = 0
KCO1 111336Z 28015KT 13/02 A2988 RMK A01 T01300022  RH  048%=      5-min Rain = 0
KCO1 111337Z 28016KT 13/02 A2988 RMK A01 T01290022  RH  048%=      5-min Rain = 0
KCO1 111338Z 28015KT 13/02 A2988 RMK A01 T01300022  RH  048%=      5-min Rain = 0
KCO1 111339Z 28015G21KT 13/02 A2988 RMK A01 T01290022  RH  048%=      5-min Rain = 0
KCO1 111340Z 28013KT 13/02 A2988 RMK A01 T01290022  RH  048%=      5-min Rain = 0
KCO1 111341Z 28018G23KT 13/02 A2988 RMK A01 T01290022  RH  048%=      5-min Rain = 0
KCO1 111342Z 28017G22KT 13/02 A2989 RMK A01 T01290022  RH  048%=      5-min Rain = 0
KCO1 111343Z 28020G26KT 13/02 A2988 RMK A01 T01280021  RH  048%=      5-min Rain = 0
KCO1 111344Z 28018KT 13/02 A2989 RMK A01 T01290022  RH  048%=      5-min Rain = 0
KCO1 111345Z 28017KT 13/02 A2989 RMK A01 T01290022  RH  048%=      5-min Rain = 0
KCO1 111346Z 28017KT 13/02 A2989 RMK A01 T01290022  RH  048%=      5-min Rain = 0
KCO1 111347Z 28016G21KT 13/02 A2989 RMK A01 T01290022  RH  048%=      5-min Rain = 0
KCO1 111348Z 28018KT 13/02 A2989 RMK A01 T01280022  RH  048%=      5-min Rain = 0
KCO1 111349Z 28018KT 13/02 A2989 RMK A01 T01280022  RH  048%=      5-min Rain = 0
KCO1 111350Z 28017G22KT 13/02 A2989 RMK A01 T01280022  RH  048%=      5-min Rain = 0
KCO1 111351Z 28016G21KT 13/02 A299 RMK A01 T01280022  RH  048%=      5-min Rain = 0
KCO1 111352Z 28016KT 13/02 A299 RMK A01 T01280022  RH  048%=      5-min Rain = 0
KCO1 111353Z 28016KT 13/02 A299 RMK A01 T01280022  RH  048%=      5-min Rain = 0
KCO1 111354Z 29017KT 13/02 A299 RMK A01 T01280022  RH  049%=      5-min Rain = 0
KCO1 111355Z 29018G23KT 13/02 A299 RMK A01 T01280022  RH  049%=      5-min Rain = 0
KCO1 111356Z 29016KT 13/02 A299 RMK A01 T01280022  RH  048%=      5-min Rain = 0
KCO1 111357Z 29016KT 13/02 A299 RMK A01 T01280022  RH  048%=      5-min Rain = 0
KCO1 111358Z 30014KT 13/02 A2991 RMK A01 T01280022  RH  048%=      5-min Rain = 0
KCO1 111359Z 30013KT 13/02 A2991 RMK A01 T01270021  RH  049%=      5-min Rain = 0
KCO1 111400Z 29015KT 13/02 A2991 RMK A01 T01270022  RH  049%=      5-min Rain = 0
KCO1 111401Z 30015G20KT 13/02 A2991 RMK A01 T01270022  RH  049%=      5-min Rain = 0
KCO1 111402Z 30016KT 13/02 A2991 RMK A01 T01270022  RH  049%=      5-min Rain = 0
KCO1 111403Z 30015G20KT 13/02 A2991 RMK A01 T01270021  RH  049%=      5-min Rain = 0
KCO1 111404Z 30017KT 13/02 A2992 RMK A01 T01270021  RH  049%=      5-min Rain = 0
KCO1 111405Z 30018G23KT 13/02 A2992 RMK A01 T01270021  RH  048%=      5-min Rain = 0
KCO1 111406Z 29016G21KT 13/02 A2992 RMK A01 T01270021  RH  048%=      5-min Rain = 0
KCO1 111407Z 30016G21KT 13/02 A2992 RMK A01 T01270021  RH  048%=      5-min Rain = 0
KCO1 111408Z 30019KT 13/02 A2992 RMK A01 T01270021  RH  048%=      5-min Rain = 0
KCO1 111409Z 30019G24KT 13/02 A2993 RMK A01 T01270021  RH  048%=      5-min Rain = 0
KCO1 111410Z 31016G22KT 13/02 A2993 RMK A01 T01280021  RH  048%=      5-min Rain = 0
KCO1 111411Z 31023G31KT 13/02 A2993 RMK A01 T01280021  RH  048%=      5-min Rain = 0
KCO1 111412Z 32022G27KT 13/02 A2994 RMK A01 T01280021  RH  048%=      5-min Rain = 0
KCO1 111413Z 34021G28KT 13/02 A2995 RMK A01 T01280023  RH  049%=      5-min Rain = 0
KCO1 111414Z 34023KT 13/03 A2995 RMK A01 T01260031  RH  052%=      5-min Rain = 0
KCO1 111415Z 35023G28KT 12/03 A2995 RMK A01 T01210034  RH  055%=      5-min Rain = 0
KCO1 111416Z 35022KT 12/04 A2996 RMK A01 T01190035  RH  057%=      5-min Rain = 0
KCO1 111417Z 35022KT 12/04 A2996 RMK A01 T01170036  RH  058%=      5-min Rain = 0
KCO1 111418Z 35018G23KT 12/04 A2996 RMK A01 T01160037  RH  059%=      5-min Rain = 0
KCO1 111419Z 35016KT 12/04 A2996 RMK A01 T01150038  RH  059%=      5-min Rain = 0
KCO1 111420Z 35018G25KT 11/04 A2996 RMK A01 T01140039  RH  060%=      5-min Rain = 0
KCO1 111421Z 35019G25KT 11/04 A2996 RMK A01 T01130038  RH  060%=      5-min Rain = 0
KCO1 111422Z 35018KT 11/04 A2997 RMK A01 T01130038  RH  060%=      5-min Rain = 0
KCO1 111423Z 35018G23KT 11/04 A2997 RMK A01 T01120038  RH  060%=      5-min Rain = 0
KCO1 111424Z 35021KT 11/04 A2997 RMK A01 T01120036  RH  059%=      5-min Rain = 0
KCO1 111425Z 35020G27KT 11/03 A2997 RMK A01 T01120033  RH  058%=      5-min Rain = 0
KCO1 111426Z 35021KT 11/03 A2997 RMK A01 T01120030  RH  057%=      5-min Rain = 0
KCO1 111427Z 35020G25KT 11/03 A2997 RMK A01 T01130030  RH  057%=      5-min Rain = 0
KCO1 111428Z 35017G23KT 11/03 A2997 RMK A01 T01120032  RH  058%=      5-min Rain = 0
KCO1 111429Z 35017KT 11/03 A2997 RMK A01 T01110033  RH  058%=      5-min Rain = 0
KCO1 111430Z 35014KT 11/03 A2997 RMK A01 T01110034  RH  059%=      5-min Rain = 0
KCO1 111431Z 35017KT 11/03 A2997 RMK A01 T01100034  RH  060%=      5-min Rain = 0
KCO1 111432Z 35014KT 11/03 A2998 RMK A01 T01100034  RH  059%=      5-min Rain = 0
KCO1 111433Z 35015KT 11/04 A2998 RMK A01 T01100035  RH  060%=      5-min Rain = 0
KCO1 111434Z 35014KT 11/04 A2998 RMK A01 T01090035  RH  060%=      5-min Rain = 0
KCO1 111435Z 35014KT 11/03 A2998 RMK A01 T01090034  RH  060%=      5-min Rain = 0
KCO1 111436Z 36016KT 11/03 A2998 RMK A01 T01090032  RH  059%=      5-min Rain = 0
KCO1 111437Z 36014KT 11/03 A2998 RMK A01 T01090033  RH  059%=      5-min Rain = 0
KCO1 111438Z 35015KT 11/03 A2998 RMK A01 T01090033  RH  060%=      5-min Rain = 0
KCO1 111439Z 35014KT 11/03 A2998 RMK A01 T01090034  RH  060%=      5-min Rain = 0
KCO1 111440Z 36014G19KT 11/04 A2999 RMK A01 T01080035  RH  061%=      5-min Rain = 0
KCO1 111441Z 35015KT 11/04 A2999 RMK A01 T01080035  RH  061%=      5-min Rain = 0
KCO1 111442Z 36014KT 11/04 A2999 RMK A01 T01080036  RH  061%=      5-min Rain = 0
KCO1 111443Z 35013KT 11/04 A2999 RMK A01 T01070036  RH  061%=      5-min Rain = 0
KCO1 111444Z 36013KT 11/04 A2999 RMK A01 T01070036  RH  062%=      5-min Rain = 0
KCO1 111445Z 36013KT 11/04 A2999 RMK A01 T01070035  RH  061%=      5-min Rain = 0
KCO1 111446Z 36012KT 11/04 A2999 RMK A01 T01070035  RH  061%=      5-min Rain = 0
KCO1 111447Z 35012KT 11/03 A2999 RMK A01 T01070034  RH  061%=      5-min Rain = 0
KCO1 111448Z 00012KT 11/04 A30 RMK A01 T01070035  RH  061%=      5-min Rain = 0
KCO1 111449Z 36013KT 11/03 A30 RMK A01 T01080033  RH  060%=      5-min Rain = 0
KCO1 111450Z 35014G19KT 11/03 A30 RMK A01 T01080034  RH  060%=      5-min Rain = 0
KCO1 111451Z 36016KT 11/03 A30 RMK A01 T01080033  RH  060%=      5-min Rain = 0
KCO1 111452Z 35018KT 11/03 A30 RMK A01 T01080032  RH  059%=      5-min Rain = 0
KCO1 111453Z 36017KT 11/03 A30 RMK A01 T01090031  RH  059%=      5-min Rain = 0
KCO1 111454Z 36014KT 11/03 A3001 RMK A01 T01090031  RH  059%=      5-min Rain = 0
KCO1 111455Z 35015G21KT 11/03 A3001 RMK A01 T01090031  RH  059%=      5-min Rain = 0
KCO1 111456Z 35016G21KT 11/03 A3001 RMK A01 T01090032  RH  059%=      5-min Rain = 0
KCO1 111457Z 35017KT 11/03 A3001 RMK A01 T01090032  RH  059%=      5-min Rain = 0
KCO1 111458Z 35016KT 11/03 A3001 RMK A01 T01090031  RH  059%=      5-min Rain = 0
KCO1 111459Z 35013KT 11/03 A3002 RMK A01 T01090032  RH  059%=      5-min Rain = 0
KCO1 111500Z 35017G22KT 11/03 A3002 RMK A01 T01090032  RH  059%=      5-min Rain = 0
KCO1 111501Z 35018KT 11/03 A3002 RMK A01 T01080031  RH  059%=      5-min Rain = 0
KCO1 111502Z 34017KT 11/03 A3002 RMK A01 T01080031  RH  059%=      5-min Rain = 0
KCO1 111503Z 35019KT 11/03 A3002 RMK A01 T01080033  RH  060%=      5-min Rain = 0
KCO1 111504Z 34019G25KT 11/03 A3003 RMK A01 T01080033  RH  060%=      5-min Rain = 0
KCO1 111505Z 35020KT 11/03 A3003 RMK A01 T01080033  RH  060%=      5-min Rain = 0
KCO1 111506Z 35018KT 11/03 A3003 RMK A01 T01080032  RH  060%=      5-min Rain = 0
KCO1 111507Z 34017KT 11/03 A3003 RMK A01 T01080033  RH  060%=      5-min Rain = 0
KCO1 111508Z 34016KT 11/03 A3004 RMK A01 T01070033  RH  060%=      5-min Rain = 0
KCO1 111509Z 34013KT 11/04 A3004 RMK A01 T01070035  RH  061%=      5-min Rain = 0
KCO1 111510Z 34014KT 11/04 A3004 RMK A01 T01070036  RH  062%=      5-min Rain = 0
KCO1 111511Z 34015KT 11/04 A3004 RMK A01 T01070036  RH  062%=      5-min Rain = 0
KCO1 111512Z 34019KT 11/04 A3004 RMK A01 T01070036  RH  061%=      5-min Rain = 0
KCO1 111513Z 33015G20KT 11/03 A3004 RMK A01 T01070034  RH  061%=      5-min Rain = 0
KCO1 111514Z 34013KT 11/04 A3004 RMK A01 T01060037  RH  062%=      5-min Rain = 0
KCO1 111515Z 34017G22KT 11/04 A3004 RMK A01 T01060038  RH  063%=      5-min Rain = 0
KCO1 111516Z 34016KT 11/04 A3004 RMK A01 T01060036  RH  062%=      5-min Rain = 0
KCO1 111517Z 34015G20KT 11/04 A3005 RMK A01 T01060036  RH  062%=      5-min Rain = 0
KCO1 111518Z 34016KT 11/04 A3005 RMK A01 T01050036  RH  062%=      5-min Rain = 0
KCO1 111519Z 33014KT 11/04 A3005 RMK A01 T01060037  RH  062%=      5-min Rain = 0
KCO1 111520Z 34014KT 11/04 A3005 RMK A01 T01060037  RH  063%=      5-min Rain = 0
KCO1 111521Z 34014KT 11/04 A3005 RMK A01 T01050038  RH  063%=      5-min Rain = 0
KCO1 111522Z 34014KT 11/04 A3005 RMK A01 T01050039  RH  063%=      5-min Rain = 0
KCO1 111523Z 34013G18KT 11/04 A3005 RMK A01 T01050040  RH  064%=      5-min Rain = 0
KCO1 111524Z 34015KT 11/04 A3005 RMK A01 T01050039  RH  064%=      5-min Rain = 0
KCO1 111525Z 34014KT 11/04 A3005 RMK A01 T01050041  RH  065%=      5-min Rain = 0
KCO1 111526Z 34012KT 10/04 A3006 RMK A01 T01040043  RH  066%=      5-min Rain = 0
KCO1 111527Z 34013KT 10/05 A3006 RMK A01 T01030045  RH  067%=      5-min Rain = 0
KCO1 111528Z 34014KT 10/05 A3006 RMK A01 T01020045  RH  068%=      5-min Rain = 0
KCO1 111529Z 33011KT 10/05 A3006 RMK A01 T01010048  RH  069%=      5-min Rain = 0
KCO1 111530Z 33014KT 10/05 A3006 RMK A01 T01000049  RH  070%=      5-min Rain = 0
KCO1 111531Z 33013G18KT 10/05 A3006 RMK A01 T01000049  RH  071%=      5-min Rain = 0
KCO1 111532Z 32010KT 10/05 A3007 RMK A01 T01000050  RH  071%=      5-min Rain = 0
KCO1 111533Z 32014G21KT 10/05 A3007 RMK A01 T00990051  RH  072%=      5-min Rain = 0
KCO1 111534Z 32017KT 10/05 A3007 RMK A01 T00980048  RH  071%=      5-min Rain = 0
KCO1 111535Z 32016KT 10/05 A3007 RMK A01 T00970046  RH  071%=      5-min Rain = 0
KCO1 111536Z 32014KT 10/05 A3007 RMK A01 T00960046  RH  071%=      5-min Rain = 0
KCO1 111537Z 32017KT 10/04 A3007 RMK A01 T00960044  RH  070%=      5-min Rain = 0
KCO1 111538Z 32013G18KT 10/04 A3007 RMK A01 T00950041  RH  069%=      5-min Rain = 0
KCO1 111539Z 32013KT 09/04 A3008 RMK A01 T00940042  RH  070%=      5-min Rain = 0
KCO1 111540Z 32013KT 09/04 A3008 RMK A01 T00940042  RH  070%=      5-min Rain = 0
KCO1 111541Z 32014KT 09/04 A3008 RMK A01 T00930041  RH  070%=      5-min Rain = 0
KCO1 111542Z 32015KT 09/04 A3008 RMK A01 T00930041  RH  070%=      5-min Rain = 0
KCO1 111543Z 33015KT 09/04 A3008 RMK A01 T00930040  RH  070%=      5-min Rain = 0
KCO1 111544Z 33018KT 09/04 A3008 RMK A01 T00930039  RH  069%=      5-min Rain = 0
KCO1 111545Z 33014KT 09/04 A3009 RMK A01 T00930038  RH  068%=      5-min Rain = 0
KCO1 111546Z 33013KT 09/04 A3009 RMK A01 T00930039  RH  069%=      5-min Rain = 0
KCO1 111547Z 33012KT 09/04 A3009 RMK A01 T00930041  RH  070%=      5-min Rain = 0
KCO1 111548Z 33014KT 09/04 A3009 RMK A01 T00930041  RH  070%=      5-min Rain = 0
KCO1 111549Z 33015KT 09/04 A3009 RMK A01 T00930039  RH  069%=      5-min Rain = 0
KCO1 111550Z 33017KT 09/04 A3009 RMK A01 T00940037  RH  068%=      5-min Rain = 0
KCO1 111551Z 33015G20KT 10/04 A3009 RMK A01 T00950035  RH  066%=      5-min Rain = 0
KCO1 111552Z 34017KT 10/04 A301 RMK A01 T00950036  RH  067%=      5-min Rain = 0
KCO1 111553Z 34016G21KT 10/03 A301 RMK A01 T00950034  RH  066%=      5-min Rain = 0
KCO1 111554Z 33017KT 10/04 A301 RMK A01 T00960035  RH  066%=      5-min Rain = 0
KCO1 111555Z 34014KT 10/03 A301 RMK A01 T00960034  RH  065%=      5-min Rain = 0
KCO1 111556Z 34016KT 10/04 A301 RMK A01 T00960035  RH  066%=      5-min Rain = 0
KCO1 111557Z 33017KT 10/03 A301 RMK A01 T00960033  RH  065%=      5-min Rain = 0
KCO1 111558Z 33017KT 10/03 A301 RMK A01 T00960031  RH  064%=      5-min Rain = 0
KCO1 111559Z 34016KT 10/03 A301 RMK A01 T00960031  RH  064%=      5-min Rain = 0
KCO1 111600Z 33016KT 10/03 A301 RMK A01 T00960031  RH  064%=      5-min Rain = 0
KCO1 111601Z 33015KT 10/03 A3011 RMK A01 T00960031  RH  064%=      5-min Rain = 0
KCO1 111602Z 33014KT 10/03 A3011 RMK A01 T00960034  RH  065%=      5-min Rain = 0
KCO1 111603Z 33013KT 10/04 A3011 RMK A01 T00960035  RH  066%=      5-min Rain = 0
KCO1 111604Z 33011KT 10/04 A3011 RMK A01 T00960036  RH  066%=      5-min Rain = 0
KCO1 111605Z 33013KT 10/04 A3011 RMK A01 T00950036  RH  067%=      5-min Rain = 0
KCO1 111606Z 33013KT 10/03 A3011 RMK A01 T00950034  RH  066%=      5-min Rain = 0
KCO1 111607Z 33013KT 10/03 A3012 RMK A01 T00950033  RH  065%=      5-min Rain = 0
KCO1 111608Z 34014KT 10/03 A3012 RMK A01 T00960034  RH  066%=      5-min Rain = 0
KCO1 111609Z 33014KT 10/03 A3012 RMK A01 T00960034  RH  065%=      5-min Rain = 0
KCO1 111610Z 34013KT 10/04 A3012 RMK A01 T00960036  RH  066%=      5-min Rain = 0
KCO1 111611Z 34013KT 10/04 A3012 RMK A01 T00960038  RH  067%=      5-min Rain = 0
KCO1 111612Z 34014KT 10/04 A3012 RMK A01 T00950039  RH  068%=      5-min Rain = 0
KCO1 111613Z 34013KT 10/04 A3013 RMK A01 T00950039  RH  068%=      5-min Rain = 0
KCO1 111614Z 34013KT 09/04 A3013 RMK A01 T00940040  RH  069%=      5-min Rain = 0
KCO1 111615Z 34014KT 09/04 A3013 RMK A01 T00930039  RH  069%=      5-min Rain = 0
KCO1 111616Z 33013KT 09/04 A3013 RMK A01 T00930040  RH  070%=      5-min Rain = 0
KCO1 111617Z 33011KT 09/04 A3013 RMK A01 T00920041  RH  070%=      5-min Rain = 0
KCO1 111618Z 32012KT 09/04 A3013 RMK A01 T00910042  RH  071%=      5-min Rain = 0.01
KCO1 111619Z 32016KT 09/04 A3013 RMK A01 T00900040  RH  071%=      5-min Rain = 0
KCO1 111620Z 32017KT 09/04 A3013 RMK A01 T00890037  RH  070%=      5-min Rain = 0
KCO1 111621Z 33014KT 09/04 A3014 RMK A01 T00880038  RH  071%=      5-min Rain = 0
KCO1 111622Z 33015KT 09/04 A3014 RMK A01 T00880042  RH  073%=      5-min Rain = 0
KCO1 111623Z 33013KT 09/04 A3014 RMK A01 T00860042  RH  074%=      5-min Rain = 0
KCO1 111624Z 32014KT 09/04 A3014 RMK A01 T00860044  RH  075%=      5-min Rain = 0
KCO1 111625Z 32014KT 09/04 A3014 RMK A01 T00850044  RH  075%=      5-min Rain = 0
KCO1 111626Z 32015KT 08/05 A3015 RMK A01 T00840045  RH  077%=      5-min Rain = 0
KCO1 111627Z 33019KT 08/05 A3015 RMK A01 T00830045  RH  077%=      5-min Rain = 0
KCO1 111628Z 33015G20KT 08/04 A3015 RMK A01 T00830043  RH  076%=      5-min Rain = 0
KCO1 111629Z 32015KT 08/05 A3015 RMK A01 T00820045  RH  078%=      5-min Rain = 0
KCO1 111630Z 33015G22KT 08/05 A3015 RMK A01 T00810046  RH  079%=      5-min Rain = 0.01
KCO1 111631Z 34020KT 08/05 A3016 RMK A01 T00800045  RH  078%=      5-min Rain = 0
KCO1 111632Z 35018KT 08/04 A3016 RMK A01 T00800038  RH  075%=      5-min Rain = 0
KCO1 111633Z 36017KT 08/04 A3016 RMK A01 T00790036  RH  074%=      5-min Rain = 0
KCO1 111634Z 00016KT 08/04 A3016 RMK A01 T00780036  RH  075%=      5-min Rain = 0
KCO1 111635Z 36015KT 08/04 A3017 RMK A01 T00760036  RH  076%=      5-min Rain = 0
KCO1 111636Z 00014KT 07/04 A3017 RMK A01 T00740037  RH  077%=      5-min Rain = 0
KCO1 111637Z 00014KT 07/04 A3017 RMK A01 T00730038  RH  079%=      5-min Rain = 0
KCO1 111638Z 00013KT 07/04 A3017 RMK A01 T00720038  RH  079%=      5-min Rain = 0.01
KCO1 111639Z 00013KT 07/04 A3017 RMK A01 T00710040  RH  080%=      5-min Rain = 0
KCO1 111640Z 00014KT 07/04 A3017 RMK A01 T00710040  RH  081%=      5-min Rain = 0
KCO1 111641Z 01013KT 07/04 A3017 RMK A01 T00710040  RH  080%=      5-min Rain = 0
KCO1 111642Z 00013KT 07/04 A3018 RMK A01 T00710041  RH  081%=      5-min Rain = 0
KCO1 111643Z 00012KT 07/04 A3018 RMK A01 T00710042  RH  082%=      5-min Rain = 0
KCO1 111644Z 36011KT 07/04 A3018 RMK A01 T00700043  RH  083%=      5-min Rain = 0
KCO1 111645Z 35013KT 07/04 A3018 RMK A01 T00700044  RH  084%=      5-min Rain = 0
KCO1 111646Z 35014KT 07/04 A3018 RMK A01 T00700044  RH  084%=      5-min Rain = 0
KCO1 111647Z 35014KT 07/04 A3018 RMK A01 T00700044  RH  084%=      5-min Rain = 0
KCO1 111648Z 35013KT 07/04 A3018 RMK A01 T00700044  RH  084%=      5-min Rain = 0
KCO1 111649Z 34012KT 07/04 A3018 RMK A01 T00700044  RH  084%=      5-min Rain = 0.01
KCO1 111650Z 34011KT 07/05 A3019 RMK A01 T00710046  RH  084%=      5-min Rain = 0
KCO1 111651Z 34012KT 07/05 A3018 RMK A01 T00710046  RH  084%=      5-min Rain = 0
KCO1 111652Z 34012KT 07/05 A3018 RMK A01 T00720046  RH  084%=      5-min Rain = 0
KCO1 111653Z 34010KT 07/05 A3018 RMK A01 T00710046  RH  084%=      5-min Rain = 0
KCO1 111654Z 34011KT 07/05 A3019 RMK A01 T00720047  RH  084%=      5-min Rain = 0
KCO1 111655Z 34009KT 07/05 A3019 RMK A01 T00720046  RH  084%=      5-min Rain = 0
KCO1 111656Z 34010KT 07/05 A3019 RMK A01 T00720047  RH  084%=      5-min Rain = 0
KCO1 111657Z 34009KT 07/05 A3019 RMK A01 T00720047  RH  084%=      5-min Rain = 0
KCO1 111658Z 34008KT 07/05 A3019 RMK A01 T00720048  RH  085%=      5-min Rain = 0
KCO1 111659Z 34010KT 07/05 A3019 RMK A01 T00720048  RH  085%=      5-min Rain = 0
KCO1 111700Z 34011KT 07/05 A3019 RMK A01 T00720048  RH  085%=      5-min Rain = 0.01
KCO1 111701Z 34009KT 07/05 A3019 RMK A01 T00720047  RH  084%=      5-min Rain = 0
KCO1 111702Z 34009KT 07/05 A3019 RMK A01 T00720047  RH  084%=      5-min Rain = 0
KCO1 111703Z 34008KT 07/05 A3019 RMK A01 T00720048  RH  084%=      5-min Rain = 0
KCO1 111704Z 33008KT 07/05 A3019 RMK A01 T00720048  RH  085%=      5-min Rain = 0
KCO1 111705Z 34007KT 07/05 A3019 RMK A01 T00730050  RH  085%=      5-min Rain = 0
KCO1 111706Z 33007KT 07/05 A3019 RMK A01 T00730050  RH  086%=      5-min Rain = 0
KCO1 111707Z 33007KT 07/05 A3019 RMK A01 T00730050  RH  086%=      5-min Rain = 0
KCO1 111708Z 33008KT 07/05 A302 RMK A01 T00730050  RH  086%=      5-min Rain = 0
KCO1 111709Z 33007KT 07/05 A302 RMK A01 T00720050  RH  086%=      5-min Rain = 0
KCO1 111710Z 33008KT 07/05 A302 RMK A01 T00730051  RH  086%=      5-min Rain = 0
KCO1 111711Z 32009KT 07/05 A302 RMK A01 T00730051  RH  086%=      5-min Rain = 0
KCO1 111712Z 33008KT 07/05 A302 RMK A01 T00730051  RH  086%=      5-min Rain = 0
KCO1 111713Z 32009KT 07/05 A302 RMK A01 T00730051  RH  086%=      5-min Rain = 0
KCO1 111714Z 33009KT 07/05 A302 RMK A01 T00730052  RH  086%=      5-min Rain = 0.01
KCO1 111715Z 32008KT 07/05 A302 RMK A01 T00730049  RH  085%=      5-min Rain = 0
KCO1 111716Z 33009KT 07/05 A302 RMK A01 T00730049  RH  085%=      5-min Rain = 0
KCO1 111717Z 33008KT 07/05 A302 RMK A01 T00730048  RH  084%=      5-min Rain = 0
KCO1 111718Z 34009KT 07/05 A302 RMK A01 T00730047  RH  083%=      5-min Rain = 0
KCO1 111719Z 36010KT 07/05 A302 RMK A01 T00740047  RH  083%=      5-min Rain = 0
KCO1 111720Z 35011KT 07/04 A302 RMK A01 T00740042  RH  080%=      5-min Rain = 0
KCO1 111721Z 34011KT 07/04 A302 RMK A01 T00740041  RH  080%=      5-min Rain = 0
KCO1 111722Z 36011KT 07/04 A302 RMK A01 T00740039  RH  078%=      5-min Rain = 0
KCO1 111723Z 00011KT 07/04 A302 RMK A01 T00740039  RH  078%=      5-min Rain = 0
KCO1 111724Z 35009KT 08/04 A302 RMK A01 T00750040  RH  078%=      5-min Rain = 0
KCO1 111725Z 36010KT 08/04 A302 RMK A01 T00750042  RH  080%=      5-min Rain = 0
KCO1 111726Z 36009KT 08/04 A302 RMK A01 T00750042  RH  080%=      5-min Rain = 0
KCO1 111727Z 36009KT 07/04 A302 RMK A01 T00740042  RH  080%=      5-min Rain = 0
KCO1 111728Z 35011KT 08/04 A302 RMK A01 T00750041  RH  079%=      5-min Rain = 0
KCO1 111729Z 35009KT 08/04 A302 RMK A01 T00750040  RH  078%=      5-min Rain = 0
KCO1 111730Z 35009KT 08/04 A302 RMK A01 T00760042  RH  079%=      5-min Rain = 0
KCO1 111731Z 36007KT 08/04 A302 RMK A01 T00760040  RH  078%=      5-min Rain = 0
KCO1 111732Z 35010KT 08/04 A302 RMK A01 T00760041  RH  078%=      5-min Rain = 0
KCO1 111733Z 35009KT 08/04 A302 RMK A01 T00770041  RH  078%=      5-min Rain = 0
KCO1 111734Z 35008KT 08/04 A302 RMK A01 T00770041  RH  078%=      5-min Rain = 0
KCO1 111735Z 35008KT 08/04 A302 RMK A01 T00770039  RH  077%=      5-min Rain = 0
KCO1 111736Z 35007KT 08/04 A302 RMK A01 T00780040  RH  077%=      5-min Rain = 0
KCO1 111737Z 35007KT 08/04 A302 RMK A01 T00780041  RH  078%=      5-min Rain = 0
KCO1 111738Z 34007KT 08/04 A302 RMK A01 T00780042  RH  078%=      5-min Rain = 0
KCO1 111739Z 34008KT 08/04 A302 RMK A01 T00780042  RH  078%=      5-min Rain = 0
KCO1 111740Z 33007KT 08/04 A302 RMK A01 T00780041  RH  077%=      5-min Rain = 0
KCO1 111741Z 33007KT 08/04 A302 RMK A01 T00790043  RH  078%=      5-min Rain = 0
KCO1 111742Z 33006KT 08/04 A302 RMK A01 T00790042  RH  077%=      5-min Rain = 0
KCO1 111743Z 32007KT 08/04 A302 RMK A01 T00790042  RH  077%=      5-min Rain = 0
KCO1 111744Z 32008KT 08/04 A302 RMK A01 T00790043  RH  078%=      5-min Rain = 0
KCO1 111745Z 33007KT 08/04 A302 RMK A01 T00790041  RH  077%=      5-min Rain = 0
KCO1 111746Z 32005KT 08/04 A302 RMK A01 T00790043  RH  078%=      5-min Rain = 0
KCO1 111747Z 32007KT 08/04 A302 RMK A01 T00790044  RH  078%=      5-min Rain = 0
KCO1 111748Z 31006KT 08/04 A302 RMK A01 T00790044  RH  078%=      5-min Rain = 0
KCO1 111749Z 30006KT 08/05 A302 RMK A01 T00790045  RH  079%=      5-min Rain = 0
KCO1 111750Z 31005KT 08/05 A302 RMK A01 T00790047  RH  080%=      5-min Rain = 0
KCO1 111751Z 31007KT 08/05 A302 RMK A01 T00790047  RH  080%=      5-min Rain = 0
KCO1 111752Z 32007KT 08/05 A3021 RMK A01 T00790046  RH  080%=      5-min Rain = 0
KCO1 111753Z 32007KT 08/05 A3021 RMK A01 T00790046  RH  079%=      5-min Rain = 0
KCO1 111754Z 31008KT 08/04 A3021 RMK A01 T00790044  RH  079%=      5-min Rain = 0
KCO1 111755Z 31010KT 08/04 A3021 RMK A01 T00790044  RH  079%=      5-min Rain = 0
KCO1 111756Z 31009KT 08/04 A3021 RMK A01 T00790042  RH  077%=      5-min Rain = 0
KCO1 111757Z 31008KT 08/04 A3021 RMK A01 T00790041  RH  077%=      5-min Rain = 0
KCO1 111758Z 31009KT 08/04 A3021 RMK A01 T00790042  RH  077%=      5-min Rain = 0
KCO1 111759Z 31008KT 08/04 A3021 RMK A01 T00790042  RH  077%=      5-min Rain = 0
KCO1 111800Z 31007KT 08/04 A3021 RMK A01 T00790043  RH  078%=      5-min Rain = 0
KCO1 111801Z 32007KT 08/04 A3021 RMK A01 T00780042  RH  078%=      5-min Rain = 0
KCO1 111802Z 31008KT 08/04 A3021 RMK A01 T00790043  RH  078%=      5-min Rain = 0
KCO1 111803Z 31009KT 08/04 A3021 RMK A01 T00790043  RH  078%=      5-min Rain = 0
KCO1 111804Z 31009KT 08/04 A3021 RMK A01 T00790041  RH  077%=      5-min Rain = 0
KCO1 111805Z 31008KT 08/04 A3021 RMK A01 T00780040  RH  077%=      5-min Rain = 0
KCO1 111806Z 31008KT 08/04 A3021 RMK A01 T00790042  RH  077%=      5-min Rain = 0
KCO1 111807Z 32009KT 08/04 A3021 RMK A01 T00790041  RH  077%=      5-min Rain = 0
KCO1 111808Z 30007KT 08/04 A3021 RMK A01 T00790041  RH  077%=      5-min Rain = 0
KCO1 111809Z 30006KT 08/04 A3021 RMK A01 T00790043  RH  078%=      5-min Rain = 0
KCO1 111810Z 31006KT 08/05 A3021 RMK A01 T00790047  RH  080%=      5-min Rain = 0
KCO1 111811Z 30007KT 08/05 A3021 RMK A01 T00800047  RH  080%=      5-min Rain = 0
KCO1 111812Z 30008KT 08/04 A3021 RMK A01 T00790044  RH  079%=      5-min Rain = 0
KCO1 111813Z 30008KT 08/04 A3021 RMK A01 T00790042  RH  078%=      5-min Rain = 0
KCO1 111814Z 31007KT 08/04 A3021 RMK A01 T00790042  RH  077%=      5-min Rain = 0
KCO1 111815Z 30006KT 08/04 A3021 RMK A01 T00800044  RH  078%=      5-min Rain = 0
KCO1 111816Z 30006KT 08/05 A3021 RMK A01 T00800045  RH  078%=      5-min Rain = 0
KCO1 111817Z 30006KT 08/05 A3021 RMK A01 T00810045  RH  078%=      5-min Rain = 0
KCO1 111818Z 31008KT 08/04 A3021 RMK A01 T00810044  RH  078%=      5-min Rain = 0
KCO1 111819Z 31008KT 08/04 A3021 RMK A01 T00810041  RH  076%=      5-min Rain = 0
KCO1 111820Z 31006KT 08/04 A3021 RMK A01 T00820042  RH  076%=      5-min Rain = 0
KCO1 111821Z 31005KT 08/05 A3021 RMK A01 T00830045  RH  077%=      5-min Rain = 0
KCO1 111822Z 31005KT 08/05 A3021 RMK A01 T00840047  RH  078%=      5-min Rain = 0
KCO1 111823Z 31006KT 08/05 A3021 RMK A01 T00840048  RH  078%=      5-min Rain = 0
KCO1 111824Z 30006KT 09/05 A3021 RMK A01 T00850046  RH  077%=      5-min Rain = 0
KCO1 111825Z 30008KT 09/05 A3021 RMK A01 T00850045  RH  076%=      5-min Rain = 0
KCO1 111826Z 31008KT 09/04 A3021 RMK A01 T00850043  RH  075%=      5-min Rain = 0
KCO1 111827Z 30008KT 09/04 A3021 RMK A01 T00860044  RH  075%=      5-min Rain = 0
KCO1 111828Z 31008KT 09/04 A3021 RMK A01 T00860043  RH  074%=      5-min Rain = 0
KCO1 111829Z 31009KT 09/04 A3021 RMK A01 T00870044  RH  074%=      5-min Rain = 0
KCO1 111830Z 30009KT 09/04 A3021 RMK A01 T00870041  RH  073%=      5-min Rain = 0
KCO1 111831Z 30009KT 09/04 A3021 RMK A01 T00870040  RH  072%=      5-min Rain = 0
KCO1 111832Z 30009KT 09/04 A3021 RMK A01 T00880040  RH  072%=      5-min Rain = 0
KCO1 111833Z 31009KT 09/04 A3021 RMK A01 T00880041  RH  072%=      5-min Rain = 0
KCO1 111834Z 31008KT 09/04 A3021 RMK A01 T00890044  RH  074%=      5-min Rain = 0
KCO1 111835Z 30008KT 09/04 A3021 RMK A01 T00890042  RH  072%=      5-min Rain = 0
KCO1 111836Z 31011KT 09/04 A3021 RMK A01 T00890043  RH  073%=      5-min Rain = 0
KCO1 111837Z 31009KT 09/04 A3022 RMK A01 T00900040  RH  071%=      5-min Rain = 0
KCO1 111838Z 31009KT 09/04 A3022 RMK A01 T00890041  RH  072%=      5-min Rain = 0
KCO1 111839Z 30006KT 09/04 A3022 RMK A01 T00890042  RH  072%=      5-min Rain = 0
KCO1 111840Z 31008KT 09/05 A3022 RMK A01 T00900045  RH  073%=      5-min Rain = 0
KCO1 111841Z 31010KT 09/05 A3022 RMK A01 T00910045  RH  073%=      5-min Rain = 0
KCO1 111842Z 32009KT 09/04 A3021 RMK A01 T00920042  RH  071%=      5-min Rain = 0
KCO1 111843Z 32009KT 09/04 A3021 RMK A01 T00920041  RH  070%=      5-min Rain = 0
KCO1 111844Z 31008KT 09/04 A3021 RMK A01 T00920043  RH  071%=      5-min Rain = 0
KCO1 111845Z 32010KT 09/04 A3021 RMK A01 T00930043  RH  071%=      5-min Rain = 0
KCO1 111846Z 32010KT 09/04 A3021 RMK A01 T00940040  RH  069%=      5-min Rain = 0
KCO1 111847Z 30009KT 09/04 A3022 RMK A01 T00940044  RH  071%=      5-min Rain = 0
KCO1 111848Z 30011KT 10/04 A3022 RMK A01 T00950041  RH  069%=      5-min Rain = 0
KCO1 111849Z 30011KT 10/04 A3022 RMK A01 T00950039  RH  068%=      5-min Rain = 0
KCO1 111850Z 31011KT 10/04 A3022 RMK A01 T00950038  RH  067%=      5-min Rain = 0
KCO1 111851Z 31012KT 10/04 A3022 RMK A01 T00950038  RH  067%=      5-min Rain = 0
KCO1 111852Z 31010KT 10/04 A3021 RMK A01 T00960038  RH  067%=      5-min Rain = 0
KCO1 111853Z 31011KT 10/04 A3021 RMK A01 T00970038  RH  067%=      5-min Rain = 0
KCO1 111854Z 31009KT 10/04 A3021 RMK A01 T00970037  RH  066%=      5-min Rain = 0
KCO1 111855Z 32011KT 10/04 A3021 RMK A01 T00980039  RH  067%=      5-min Rain = 0
KCO1 111856Z 31009KT 10/04 A3021 RMK A01 T00990040  RH  067%=      5-min Rain = 0
KCO1 111857Z 30008KT 10/04 A3021 RMK A01 T01000044  RH  068%=      5-min Rain = 0
KCO1 111858Z 31009KT 10/04 A3021 RMK A01 T01020044  RH  067%=      5-min Rain = 0
KCO1 111859Z 32012KT 10/05 A3021 RMK A01 T01040046  RH  067%=      5-min Rain = 0
KCO1 111900Z 31011KT 11/04 A3021 RMK A01 T01050040  RH  064%=      5-min Rain = 0
KCO1 111901Z 32010KT 11/04 A3021 RMK A01 T01050044  RH  066%=      5-min Rain = 0
KCO1 111902Z 32011KT 11/04 A3021 RMK A01 T01060044  RH  066%=      5-min Rain = 0
KCO1 111903Z 30008KT 11/04 A3021 RMK A01 T01070043  RH  065%=      5-min Rain = 0
KCO1 111904Z 30011KT 11/05 A3021 RMK A01 T01090047  RH  066%=      5-min Rain = 0
KCO1 111905Z 31014KT 11/04 A3021 RMK A01 T01110043  RH  063%=      5-min Rain = 0
KCO1 111906Z 30011KT 11/04 A3021 RMK A01 T01090040  RH  062%=      5-min Rain = 0
KCO1 111907Z 30011KT 11/05 A3021 RMK A01 T01080045  RH  065%=      5-min Rain = 0
KCO1 111908Z 30011KT 11/05 A3021 RMK A01 T01090048  RH  066%=      5-min Rain = 0
KCO1 111909Z 31009KT 11/05 A3021 RMK A01 T01090047  RH  066%=      5-min Rain = 0
KCO1 111910Z 31011KT 11/04 A3021 RMK A01 T01090042  RH  063%=      5-min Rain = 0
KCO1 111911Z 31012KT 11/04 A3021 RMK A01 T01080044  RH  064%=      5-min Rain = 0
KCO1 111912Z 31014G20KT 11/04 A3021 RMK A01 T01090044  RH  064%=      5-min Rain = 0
KCO1 111913Z 32016KT 11/04 A3021 RMK A01 T01090039  RH  062%=      5-min Rain = 0
KCO1 111914Z 32014G21KT 11/03 A3021 RMK A01 T01080034  RH  060%=      5-min Rain = 0
KCO1 111915Z 32016KT 11/04 A3021 RMK A01 T01070035  RH  061%=      5-min Rain = 0
KCO1 111916Z 32016KT 11/03 A3021 RMK A01 T01070029  RH  059%=      5-min Rain = 0
KCO1 111917Z 31014KT 11/03 A3021 RMK A01 T01060025  RH  057%=      5-min Rain = 0
KCO1 111918Z 32018KT 11/02 A3021 RMK A01 T01050021  RH  056%=      5-min Rain = 0
KCO1 111919Z 33019KT 10/01 A3021 RMK A01 T01040009  RH  052%=      5-min Rain = 0
KCO1 111920Z 33016G21KT 10/00 A3021 RMK A01 T01020002  RH  050%=      5-min Rain = 0
KCO1 111921Z 33015KT 10/01 A3021 RMK A01 T01020008  RH  052%=      5-min Rain = 0
KCO1 111922Z 32018KT 10/01 A3021 RMK A01 T01020008  RH  052%=      5-min Rain = 0
KCO1 111923Z 33018KT 10/M00 A3021 RMK A01 T01011002  RH  049%=      5-min Rain = 0
KCO1 111924Z 33016KT 10/M01 A3021 RMK A01 T01001005  RH  048%=      5-min Rain = 0
KCO1 111925Z 32018KT 10/M01 A3021 RMK A01 T00991007  RH  048%=      5-min Rain = 0
KCO1 111926Z 33014KT 10/M01 A3021 RMK A01 T00991008  RH  047%=      5-min Rain = 0
KCO1 111927Z 33014KT 10/M00 A3021 RMK A01 T00991002  RH  049%=      5-min Rain = 0
KCO1 111928Z 32016KT 10/M01 A3021 RMK A01 T00991005  RH  048%=      5-min Rain = 0
KCO1 111929Z 33016G21KT 10/M00 A3022 RMK A01 T01001002  RH  049%=      5-min Rain = 0
KCO1 111930Z 33018KT 10/M00 A3022 RMK A01 T00991004  RH  049%=      5-min Rain = 0
KCO1 111931Z 33017KT 10/M01 A3022 RMK A01 T00991007  RH  048%=      5-min Rain = 0
KCO1 111932Z 33016KT 10/M01 A3022 RMK A01 T00981007  RH  048%=      5-min Rain = 0
KCO1 111933Z 33014KT 10/M01 A3022 RMK A01 T00981009  RH  047%=      5-min Rain = 0
KCO1 111934Z 34012KT 10/M01 A3022 RMK A01 T00981005  RH  049%=      5-min Rain = 0
KCO1 111935Z 32015KT 10/M00 A3022 RMK A01 T00991003  RH  049%=      5-min Rain = 0
KCO1 111936Z 33013G19KT 10/M01 A3022 RMK A01 T00991010  RH  047%=      5-min Rain = 0
KCO1 111937Z 33014KT 10/M01 A3022 RMK A01 T00991010  RH  047%=      5-min Rain = 0
KCO1 111938Z 34013KT 10/M01 A3022 RMK A01 T00981009  RH  047%=      5-min Rain = 0
KCO1 111939Z 35015KT 10/M01 A3022 RMK A01 T00981011  RH  046%=      5-min Rain = 0
KCO1 111940Z 34013KT 10/M02 A3022 RMK A01 T00971017  RH  045%=      5-min Rain = 0
KCO1 111941Z 34013KT 10/M01 A3022 RMK A01 T00971013  RH  046%=      5-min Rain = 0
KCO1 111942Z 34016KT 10/M01 A3022 RMK A01 T00971013  RH  046%=      5-min Rain = 0
KCO1 111943Z 33014KT 10/M02 A3022 RMK A01 T00971017  RH  045%=      5-min Rain = 0
KCO1 111944Z 33014KT 10/M02 A3022 RMK A01 T00971020  RH  044%=      5-min Rain = 0
KCO1 111945Z 34015KT 10/M02 A3022 RMK A01 T00971018  RH  045%=      5-min Rain = 0
KCO1 111946Z 35016KT 10/M02 A3022 RMK A01 T00981022  RH  043%=      5-min Rain = 0
KCO1 111947Z 35015KT 10/M03 A3022 RMK A01 T00981031  RH  040%=      5-min Rain = 0
KCO1 111948Z 34012KT 10/M03 A3022 RMK A01 T00981028  RH  041%=      5-min Rain = 0
KCO1 111949Z 35014KT 10/M03 A3022 RMK A01 T00991027  RH  041%=      5-min Rain = 0
KCO1 111950Z 35015KT 10/M03 A3022 RMK A01 T01001029  RH  040%=      5-min Rain = 0
KCO1 111951Z 35014KT 10/M03 A3022 RMK A01 T01001028  RH  041%=      5-min Rain = 0
KCO1 111952Z 35017KT 10/M03 A3022 RMK A01 T01001031  RH  040%=      5-min Rain = 0
KCO1 111953Z 34015KT 10/M04 A3022 RMK A01 T01001035  RH  039%=      5-min Rain = 0
KCO1 111954Z 34015KT 10/M03 A3022 RMK A01 T01001028  RH  041%=      5-min Rain = 0
KCO1 111955Z 34013KT 10/M03 A3022 RMK A01 T01001025  RH  041%=      5-min Rain = 0
KCO1 111956Z 35013KT 10/M02 A3022 RMK A01 T01011023  RH  042%=      5-min Rain = 0
KCO1 111957Z 35015KT 10/M02 A3022 RMK A01 T01021023  RH  042%=      5-min Rain = 0
KCO1 111958Z 34014KT 10/M03 A3022 RMK A01 T01021029  RH  040%=      5-min Rain = 0
KCO1 111959Z 34015KT 10/M03 A3022 RMK A01 T01021030  RH  039%=      5-min Rain = 0
KCO1 112000Z 35015KT 10/M03 A3022 RMK A01 T01021031  RH  039%=      5-min Rain = 0
KCO1 112001Z 35015KT 10/M03 A3022 RMK A01 T01021029  RH  040%=      5-min Rain = 0
KCO1 112002Z 34013G19KT 10/M03 A3022 RMK A01 T01031025  RH  041%=      5-min Rain = 0
KCO1 112003Z 34017KT 10/M02 A3022 RMK A01 T01041023  RH  041%=      5-min Rain = 0
KCO1 112004Z 34016KT 10/M03 A3022 RMK A01 T01041032  RH  038%=      5-min Rain = 0
KCO1 112005Z 35014KT 10/M03 A3022 RMK A01 T01041030  RH  039%=      5-min Rain = 0
KCO1 112006Z 34016KT 10/M03 A3022 RMK A01 T01041028  RH  039%=      5-min Rain = 0
KCO1 112007Z 34017KT 10/M03 A3022 RMK A01 T01041030  RH  039%=      5-min Rain = 0
KCO1 112008Z 34016KT 10/M03 A3022 RMK A01 T01041033  RH  038%=      5-min Rain = 0
KCO1 112009Z 34013KT 10/M03 A3022 RMK A01 T01041031  RH  039%=      5-min Rain = 0
KCO1 112010Z 34011KT 11/M02 A3022 RMK A01 T01051022  RH  041%=      5-min Rain = 0
KCO1 112011Z 34012KT 11/M02 A3022 RMK A01 T01061020  RH  041%=      5-min Rain = 0
KCO1 112012Z 34012KT 11/M02 A3022 RMK A01 T01061022  RH  041%=      5-min Rain = 0
KCO1 112013Z 34012KT 11/M02 A3023 RMK A01 T01061021  RH  041%=      5-min Rain = 0
KCO1 112014Z 35012KT 11/M02 A3023 RMK A01 T01071019  RH  041%=      5-min Rain = 0
KCO1 112015Z 34015KT 11/M02 A3023 RMK A01 T01071021  RH  041%=      5-min Rain = 0
KCO1 112016Z 34012KT 11/M02 A3023 RMK A01 T01061023  RH  040%=      5-min Rain = 0
KCO1 112017Z 34011KT 11/M02 A3023 RMK A01 T01061019  RH  042%=      5-min Rain = 0
KCO1 112018Z 34011KT 11/M02 A3023 RMK A01 T01061022  RH  041%=      5-min Rain = 0
KCO1 112019Z 34012KT 11/M02 A3023 RMK A01 T01061022  RH  041%=      5-min Rain = 0
KCO1 112020Z 35012KT 11/M02 A3023 RMK A01 T01061023  RH  040%=      5-min Rain = 0
KCO1 112021Z 35011KT 11/M02 A3023 RMK A01 T01061022  RH  041%=      5-min Rain = 0
KCO1 112022Z 34011KT 11/M02 A3023 RMK A01 T01061020  RH  041%=      5-min Rain = 0
KCO1 112023Z 33008KT 11/M02 A3023 RMK A01 T01061020  RH  041%=      5-min Rain = 0
KCO1 112024Z 33010KT 11/M01 A3023 RMK A01 T01071014  RH  043%=      5-min Rain = 0
KCO1 112025Z 33010KT 11/M02 A3022 RMK A01 T01081018  RH  041%=      5-min Rain = 0
KCO1 112026Z 33010KT 11/M02 A3022 RMK A01 T01081019  RH  041%=      5-min Rain = 0
KCO1 112027Z 32013KT 11/M02 A3022 RMK A01 T01081016  RH  042%=      5-min Rain = 0
KCO1 112028Z 32011KT 11/M02 A3022 RMK A01 T01081017  RH  042%=      5-min Rain = 0
KCO1 112029Z 32011KT 11/M02 A3022 RMK A01 T01081017  RH  042%=      5-min Rain = 0
KCO1 112030Z 32012KT 11/M01 A3022 RMK A01 T01101014  RH  042%=      5-min Rain = 0
KCO1 112031Z 32011KT 11/M02 A3022 RMK A01 T01101016  RH  042%=      5-min Rain = 0
KCO1 112032Z 32012KT 11/M02 A3022 RMK A01 T01091015  RH  042%=      5-min Rain = 0
KCO1 112033Z 32008KT 11/M01 A3023 RMK A01 T01091011  RH  043%=      5-min Rain = 0
KCO1 112034Z 33011KT 11/M00 A3023 RMK A01 T01101004  RH  045%=      5-min Rain = 0
KCO1 112035Z 33012KT 11/M01 A3023 RMK A01 T01111007  RH  044%=      5-min Rain = 0
KCO1 112036Z 33011KT 11/M01 A3022 RMK A01 T01111005  RH  044%=      5-min Rain = 0
KCO1 112037Z 33010KT 11/M01 A3023 RMK A01 T01111006  RH  044%=      5-min Rain = 0
KCO1 112038Z 33012KT 11/M01 A3022 RMK A01 T01111005  RH  045%=      5-min Rain = 0
KCO1 112039Z 33013KT 11/M01 A3022 RMK A01 T01111007  RH  044%=      5-min Rain = 0
KCO1 112040Z 33012KT 11/M01 A3022 RMK A01 T01101007  RH  044%=      5-min Rain = 0
KCO1 112041Z 33012KT 11/M00 A3022 RMK A01 T01101004  RH  045%=      5-min Rain = 0
KCO1 112042Z 32010KT 11/M01 A3022 RMK A01 T01111006  RH  044%=      5-min Rain = 0
KCO1 112043Z 31009KT 11/M00 A3022 RMK A01 T01131004  RH  044%=      5-min Rain = 0
KCO1 112044Z 32013KT 12/M01 A3022 RMK A01 T01151007  RH  043%=      5-min Rain = 0
KCO1 112045Z 33015KT 12/M02 A3022 RMK A01 T01161015  RH  040%=      5-min Rain = 0
KCO1 112046Z 33015KT 12/M02 A3022 RMK A01 T01161021  RH  039%=      5-min Rain = 0
KCO1 112047Z 33015KT 12/M02 A3022 RMK A01 T01161024  RH  038%=      5-min Rain = 0
KCO1 112048Z 34015G20KT 12/M03 A3022 RMK A01 T01151025  RH  038%=      5-min Rain = 0
KCO1 112049Z 33016KT 12/M03 A3022 RMK A01 T01151028  RH  037%=      5-min Rain = 0
KCO1 112050Z 33015KT 11/M03 A3022 RMK A01 T01141030  RH  036%=      5-min Rain = 0
KCO1 112051Z 33013KT 11/M03 A3022 RMK A01 T01141033  RH  036%=      5-min Rain = 0
KCO1 112052Z 33012KT 12/M03 A3022 RMK A01 T01151032  RH  036%=      5-min Rain = 0
KCO1 112053Z 33013KT 12/M03 A3022 RMK A01 T01171028  RH  036%=      5-min Rain = 0
KCO1 112054Z 33010KT 12/M03 A3022 RMK A01 T01181029  RH  036%=      5-min Rain = 0
KCO1 112055Z 33011KT 12/M03 A3022 RMK A01 T01211027  RH  036%=      5-min Rain = 0
KCO1 112056Z 32011G16KT 12/M03 A3022 RMK A01 T01221029  RH  035%=      5-min Rain = 0
KCO1 112057Z 33013KT 12/M03 A3022 RMK A01 T01221034  RH  034%=      5-min Rain = 0
KCO1 112058Z 33014KT 12/M04 A3022 RMK A01 T01201040  RH  032%=      5-min Rain = 0
KCO1 112059Z 31011G16KT 12/M04 A3022 RMK A01 T01201036  RH  034%=      5-min Rain = 0
KCO1 112100Z 33015KT 12/M04 A3022 RMK A01 T01211039  RH  033%=      5-min Rain = 0
KCO1 112101Z 34016KT 12/M04 A3022 RMK A01 T01211043  RH  032%=      5-min Rain = 0
KCO1 112102Z 33016KT 12/M04 A3022 RMK A01 T01211044  RH  031%=      5-min Rain = 0
KCO1 112103Z 32012KT 12/M05 A3022 RMK A01 T01211045  RH  031%=      5-min Rain = 0
KCO1 112104Z 33012KT 12/M05 A3022 RMK A01 T01211046  RH  031%=      5-min Rain = 0
KCO1 112105Z 33018KT 12/M05 A3022 RMK A01 T01211048  RH  030%=      5-min Rain = 0
KCO1 112106Z 34014KT 12/M05 A3022 RMK A01 T01201050  RH  030%=      5-min Rain = 0
KCO1 112107Z 34013KT 12/M04 A3022 RMK A01 T01211041  RH  032%=      5-min Rain = 0
KCO1 112108Z 33013G18KT 12/M05 A3022 RMK A01 T01231047  RH  030%=      5-min Rain = 0
KCO1 112109Z 33014KT 12/M05 A3022 RMK A01 T01221048  RH  030%=      5-min Rain = 0
KCO1 112110Z 33013KT 12/M06 A3022 RMK A01 T01221059  RH  028%=      5-min Rain = 0
KCO1 112111Z 33013KT 12/M06 A3022 RMK A01 T01211059  RH  028%=      5-min Rain = 0
KCO1 112112Z 34013KT 12/M06 A3023 RMK A01 T01211057  RH  028%=      5-min Rain = 0
KCO1 112113Z 35017KT 12/M05 A3023 RMK A01 T01221050  RH  030%=      5-min Rain = 0
KCO1 112114Z 35019KT 12/M06 A3023 RMK A01 T01221057  RH  028%=      5-min Rain = 0
KCO1 112115Z 35016KT 12/M06 A3023 RMK A01 T01221060  RH  028%=      5-min Rain = 0
KCO1 112116Z 35016KT 12/M06 A3023 RMK A01 T01221061  RH  027%=      5-min Rain = 0
KCO1 112117Z 35016KT 12/M06 A3023 RMK A01 T01221060  RH  028%=      5-min Rain = 0
KCO1 112118Z 36017KT 12/M07 A3023 RMK A01 T01211065  RH  027%=      5-min Rain = 0
KCO1 112119Z 00016KT 12/M07 A3023 RMK A01 T01201066  RH  027%=      5-min Rain = 0
KCO1 112120Z 00016KT 12/M07 A3023 RMK A01 T01211066  RH  027%=      5-min Rain = 0
KCO1 112121Z 35016KT 12/M07 A3023 RMK A01 T01211067  RH  026%=      5-min Rain = 0
KCO1 112122Z 35015KT 12/M07 A3023 RMK A01 T01211067  RH  026%=      5-min Rain = 0
KCO1 112123Z 34013KT 12/M06 A3023 RMK A01 T01221059  RH  028%=      5-min Rain = 0
KCO1 112124Z 34015KT 12/M06 A3023 RMK A01 T01241060  RH  027%=      5-min Rain = 0
KCO1 112125Z 00014KT 12/M06 A3024 RMK A01 T01241062  RH  027%=      5-min Rain = 0
KCO1 112126Z 35016KT 12/M07 A3024 RMK A01 T01241067  RH  026%=      5-min Rain = 0
KCO1 112127Z 36014KT 12/M07 A3024 RMK A01 T01231069  RH  025%=      5-min Rain = 0
KCO1 112128Z 36015KT 12/M07 A3024 RMK A01 T01231068  RH  026%=      5-min Rain = 0
KCO1 112129Z 00016KT 12/M07 A3024 RMK A01 T01241071  RH  025%=      5-min Rain = 0
KCO1 112130Z 36013KT 12/M07 A3024 RMK A01 T01231073  RH  025%=      5-min Rain = 0
KCO1 112131Z 35012KT 12/M07 A3024 RMK A01 T01231069  RH  026%=      5-min Rain = 0
KCO1 112132Z 35010KT 12/M06 A3024 RMK A01 T01241063  RH  027%=      5-min Rain = 0
KCO1 112133Z 36013KT 13/M06 A3024 RMK A01 T01251063  RH  026%=      5-min Rain = 0
KCO1 112134Z 00014KT 13/M06 A3024 RMK A01 T01251063  RH  026%=      5-min Rain = 0
KCO1 112135Z 35012KT 13/M07 A3024 RMK A01 T01251065  RH  026%=      5-min Rain = 0
KCO1 112136Z 35011KT 13/M07 A3024 RMK A01 T01251065  RH  026%=      5-min Rain = 0
KCO1 112137Z 35012KT 12/M07 A3024 RMK A01 T01241065  RH  026%=      5-min Rain = 0
KCO1 112138Z 00014KT 12/M07 A3024 RMK A01 T01241065  RH  026%=      5-min Rain = 0
KCO1 112139Z 01012KT 12/M06 A3024 RMK A01 T01231063  RH  027%=      5-min Rain = 0
KCO1 112140Z 01013KT 12/M06 A3024 RMK A01 T01241061  RH  027%=      5-min Rain = 0
KCO1 112141Z 36012KT 12/M06 A3024 RMK A01 T01241063  RH  026%=      5-min Rain = 0
KCO1 112142Z 36013KT 12/M06 A3024 RMK A01 T01241062  RH  027%=      5-min Rain = 0
KCO1 112143Z 35011KT 12/M06 A3024 RMK A01 T01241064  RH  026%=      5-min Rain = 0
KCO1 112144Z 35010KT 12/M06 A3024 RMK A01 T01241062  RH  027%=      5-min Rain = 0
KCO1 112145Z 34011KT 12/M06 A3024 RMK A01 T01241060  RH  027%=      5-min Rain = 0
KCO1 112146Z 34014G20KT 13/M06 A3024 RMK A01 T01251056  RH  028%=      5-min Rain = 0
KCO1 112147Z 34018G23KT 13/M06 A3024 RMK A01 T01261058  RH  027%=      5-min Rain = 0
KCO1 112148Z 35016G22KT 13/M07 A3025 RMK A01 T01251065  RH  026%=      5-min Rain = 0
KCO1 112149Z 35019KT 12/M07 A3025 RMK A01 T01241068  RH  026%=      5-min Rain = 0
KCO1 112150Z 34016KT 12/M07 A3025 RMK A01 T01231069  RH  025%=      5-min Rain = 0
KCO1 112151Z 35016KT 12/M07 A3025 RMK A01 T01231068  RH  026%=      5-min Rain = 0
KCO1 112152Z 34017KT 12/M07 A3025 RMK A01 T01221070  RH  025%=      5-min Rain = 0
KCO1 112153Z 35014KT 12/M07 A3025 RMK A01 T01221071  RH  025%=      5-min Rain = 0
KCO1 112154Z 35014KT 12/M07 A3025 RMK A01 T01221071  RH  025%=      5-min Rain = 0
KCO1 112155Z 00014KT 12/M07 A3025 RMK A01 T01221073  RH  025%=      5-min Rain = 0
KCO1 112156Z 00013KT 12/M07 A3025 RMK A01 T01211074  RH  025%=      5-min Rain = 0
KCO1 112157Z 01013KT 12/M07 A3025 RMK A01 T01211071  RH  026%=      5-min Rain = 0
KCO1 112158Z 01011KT 12/M07 A3025 RMK A01 T01221068  RH  026%=      5-min Rain = 0
KCO1 112159Z 01010KT 12/M06 A3025 RMK A01 T01231064  RH  027%=      5-min Rain = 0
KCO1 112200Z 01010KT 12/M06 A3025 RMK A01 T01241063  RH  026%=      5-min Rain = 0
KCO1 112201Z 02010KT 12/M07 A3025 RMK A01 T01241066  RH  026%=      5-min Rain = 0
KCO1 112202Z 02012KT 12/M07 A3025 RMK A01 T01241065  RH  026%=      5-min Rain = 0
KCO1 112203Z 00014KT 12/M07 A3025 RMK A01 T01231067  RH  026%=      5-min Rain = 0
KCO1 112204Z 36013KT 12/M07 A3025 RMK A01 T01231068  RH  026%=      5-min Rain = 0
KCO1 112205Z 00010KT 12/M07 A3025 RMK A01 T01221069  RH  026%=      5-min Rain = 0
KCO1 112206Z 00012KT 12/M07 A3025 RMK A01 T01221065  RH  027%=      5-min Rain = 0
KCO1 112207Z 35015KT 12/M07 A3025 RMK A01 T01231065  RH  026%=      5-min Rain = 0
KCO1 112208Z 34010G15KT 12/M07 A3025 RMK A01 T01231065  RH  026%=      5-min Rain = 0
KCO1 112209Z 34011KT 12/M06 A3025 RMK A01 T01221060  RH  027%=      5-min Rain = 0
KCO1 112210Z 35011KT 12/M06 A3025 RMK A01 T01231064  RH  027%=      5-min Rain = 0
KCO1 112211Z 35013KT 12/M07 A3025 RMK A01 T01221066  RH  026%=      5-min Rain = 0
KCO1 112212Z 35012KT 12/M07 A3025 RMK A01 T01221066  RH  026%=      5-min Rain = 0
KCO1 112213Z 34010KT 12/M07 A3025 RMK A01 T01231067  RH  026%=      5-min Rain = 0
KCO1 112214Z 34013KT 12/M06 A3025 RMK A01 T01231063  RH  027%=      5-min Rain = 0
KCO1 112215Z 34014KT 12/M07 A3025 RMK A01 T01241065  RH  026%=      5-min Rain = 0
KCO1 112216Z 34013KT 12/M07 A3025 RMK A01 T01241068  RH  026%=      5-min Rain = 0
KCO1 112217Z 33013KT 12/M07 A3025 RMK A01 T01241067  RH  026%=      5-min Rain = 0
KCO1 112218Z 33013KT 12/M07 A3025 RMK A01 T01231067  RH  026%=      5-min Rain = 0
KCO1 112219Z 34013KT 12/M07 A3025 RMK A01 T01231067  RH  026%=      5-min Rain = 0
KCO1 112220Z 34013KT 12/M07 A3025 RMK A01 T01231066  RH  026%=      5-min Rain = 0
KCO1 112221Z 34012KT 12/M07 A3025 RMK A01 T01231067  RH  026%=      5-min Rain = 0
KCO1 112222Z 33009KT 12/M07 A3025 RMK A01 T01231067  RH  026%=      5-min Rain = 0
KCO1 112223Z 33009KT 12/M06 A3025 RMK A01 T01231062  RH  027%=      5-min Rain = 0
KCO1 112224Z 33010KT 13/M06 A3025 RMK A01 T01251057  RH  028%=      5-min Rain = 0
KCO1 112225Z 34011KT 13/M06 A3025 RMK A01 T01261059  RH  027%=      5-min Rain = 0
KCO1 112226Z 33012KT 13/M06 A3025 RMK A01 T01261061  RH  027%=      5-min Rain = 0
KCO1 112227Z 34012KT 13/M06 A3025 RMK A01 T01251064  RH  026%=      5-min Rain = 0
KCO1 112228Z 34012KT 13/M07 A3025 RMK A01 T01251065  RH  026%=      5-min Rain = 0
KCO1 112229Z 33012KT 12/M07 A3025 RMK A01 T01241066  RH  026%=      5-min Rain = 0
KCO1 112230Z 33012KT 12/M07 A3025 RMK A01 T01241068  RH  026%=      5-min Rain = 0
KCO1 112231Z 34008KT 12/M07 A3025 RMK A01 T01231067  RH  026%=      5-min Rain = 0
KCO1 112232Z 32010KT 12/M06 A3025 RMK A01 T01241063  RH  027%=      5-min Rain = 0
KCO1 112233Z 33010KT 13/M06 A3025 RMK A01 T01251064  RH  026%=      5-min Rain = 0
KCO1 112234Z 32010KT 13/M07 A3025 RMK A01 T01251065  RH  026%=      5-min Rain = 0
KCO1 112235Z 32011KT 13/M07 A3025 RMK A01 T01251067  RH  026%=      5-min Rain = 0
KCO1 112236Z 32010KT 12/M07 A3025 RMK A01 T01241069  RH  025%=      5-min Rain = 0
KCO1 112237Z 32009KT 12/M07 A3025 RMK A01 T01241068  RH  026%=      5-min Rain = 0
KCO1 112238Z 32009KT 12/M07 A3025 RMK A01 T01241067  RH  026%=      5-min Rain = 0
KCO1 112239Z 34008KT 12/M07 A3025 RMK A01 T01241067  RH  026%=      5-min Rain = 0
KCO1 112240Z 34011KT 13/M07 A3025 RMK A01 T01251067  RH  026%=      5-min Rain = 0
KCO1 112241Z 33008KT 13/M07 A3025 RMK A01 T01251070  RH  025%=      5-min Rain = 0
KCO1 112242Z 34007KT 13/M07 A3025 RMK A01 T01251065  RH  026%=      5-min Rain = 0
KCO1 112243Z 33009KT 13/M07 A3025 RMK A01 T01251066  RH  026%=      5-min Rain = 0
KCO1 112244Z 33010KT 13/M07 A3025 RMK A01 T01261068  RH  025%=      5-min Rain = 0
KCO1 112245Z 34010KT 13/M07 A3025 RMK A01 T01251068  RH  025%=      5-min Rain = 0
KCO1 112246Z 35007KT 13/M07 A3025 RMK A01 T01261067  RH  026%=      5-min Rain = 0
KCO1 112247Z 36008KT 13/M07 A3025 RMK A01 T01261067  RH  026%=      5-min Rain = 0
KCO1 112248Z 00012KT 13/M07 A3025 RMK A01 T01261069  RH  025%=      5-min Rain = 0
KCO1 112249Z 00011KT 13/M07 A3025 RMK A01 T01261070  RH  025%=      5-min Rain = 0
KCO1 112250Z 36009KT 13/M07 A3025 RMK A01 T01251071  RH  025%=      5-min Rain = 0
KCO1 112251Z 34011KT 13/M07 A3025 RMK A01 T01251070  RH  025%=      5-min Rain = 0
KCO1 112252Z 35010KT 13/M07 A3025 RMK A01 T01251069  RH  025%=      5-min Rain = 0
KCO1 112253Z 35010KT 13/M07 A3025 RMK A01 T01251071  RH  025%=      5-min Rain = 0
KCO1 112254Z 34010KT 13/M07 A3025 RMK A01 T01251071  RH  025%=      5-min Rain = 0
KCO1 112255Z 34008KT 13/M07 A3025 RMK A01 T01251071  RH  025%=      5-min Rain = 0
KCO1 112256Z 33008KT 13/M07 A3025 RMK A01 T01251066  RH  026%=      5-min Rain = 0
KCO1 112257Z 34008KT 13/M06 A3025 RMK A01 T01251064  RH  026%=      5-min Rain = 0
KCO1 112258Z 34007KT 13/M06 A3025 RMK A01 T01251063  RH  026%=      5-min Rain = 0
KCO1 112259Z 34005KT 13/M06 A3025 RMK A01 T01261058  RH  027%=      5-min Rain = 0
KCO1 112300Z 34007KT 13/M06 A3025 RMK A01 T01261058  RH  027%=      5-min Rain = 0
KCO1 112301Z 33006KT 13/M06 A3025 RMK A01 T01261061  RH  027%=      5-min Rain = 0
KCO1 112302Z 31007KT 13/M06 A3025 RMK A01 T01261060  RH  027%=      5-min Rain = 0
KCO1 112303Z 32010KT 13/M06 A3025 RMK A01 T01261060  RH  027%=      5-min Rain = 0
KCO1 112304Z 32010KT 13/M06 A3025 RMK A01 T01251059  RH  027%=      5-min Rain = 0
KCO1 112305Z 33011KT 12/M06 A3025 RMK A01 T01241062  RH  027%=      5-min Rain = 0
KCO1 112306Z 32009KT 12/M06 A3025 RMK A01 T01231061  RH  027%=      5-min Rain = 0
KCO1 112307Z 32009KT 12/M06 A3025 RMK A01 T01231061  RH  027%=      5-min Rain = 0
KCO1 112308Z 32007KT 12/M06 A3025 RMK A01 T01231059  RH  028%=      5-min Rain = 0
KCO1 112309Z 33007KT 12/M06 A3025 RMK A01 T01231060  RH  027%=      5-min Rain = 0
KCO1 112310Z 34008KT 12/M06 A3025 RMK A01 T01231056  RH  028%=      5-min Rain = 0
KCO1 112311Z 33008KT 12/M06 A3025 RMK A01 T01231057  RH  028%=      5-min Rain = 0
KCO1 112312Z 34007KT 12/M06 A3025 RMK A01 T01221057  RH  028%=      5-min Rain = 0
KCO1 112313Z 34008KT 12/M05 A3025 RMK A01 T01221054  RH  029%=      5-min Rain = 0
KCO1 112314Z 33010KT 12/M05 A3025 RMK A01 T01221050  RH  030%=      5-min Rain = 0
KCO1 112315Z 34010KT 12/M05 A3025 RMK A01 T01231049  RH  030%=      5-min Rain = 0
KCO1 112316Z 34008KT 12/M05 A3025 RMK A01 T01221052  RH  029%=      5-min Rain = 0
KCO1 112317Z 34008KT 12/M05 A3025 RMK A01 T01221049  RH  030%=      5-min Rain = 0
KCO1 112318Z 33008KT 12/M05 A3025 RMK A01 T01211048  RH  030%=      5-min Rain = 0
KCO1 112319Z 33007KT 12/M05 A3025 RMK A01 T01211049  RH  030%=      5-min Rain = 0
KCO1 112320Z 33006KT 12/M05 A3025 RMK A01 T01211049  RH  030%=      5-min Rain = 0
KCO1 112321Z 34006KT 12/M05 A3025 RMK A01 T01211045  RH  031%=      5-min Rain = 0
KCO1 112322Z 32005KT 12/M04 A3025 RMK A01 T01211043  RH  032%=      5-min Rain = 0
KCO1 112323Z 33006KT 12/M05 A3025 RMK A01 T01211047  RH  031%=      5-min Rain = 0
KCO1 112324Z 33006KT 12/M05 A3025 RMK A01 T01201047  RH  031%=      5-min Rain = 0
KCO1 112325Z 33004KT 12/M05 A3025 RMK A01 T01201045  RH  031%=      5-min Rain = 0
KCO1 112326Z 33005KT 12/M04 A3025 RMK A01 T01201042  RH  032%=      5-min Rain = 0
KCO1 112327Z 33004KT 12/M04 A3025 RMK A01 T01201041  RH  032%=      5-min Rain = 0
KCO1 112328Z 33005KT 12/M04 A3025 RMK A01 T01201038  RH  033%=      5-min Rain = 0
KCO1 112329Z 33005KT 12/M04 A3025 RMK A01 T01201038  RH  033%=      5-min Rain = 0
KCO1 112330Z 33006KT 12/M04 A3025 RMK A01 T01191040  RH  032%=      5-min Rain = 0
KCO1 112331Z 32005KT 12/M04 A3025 RMK A01 T01191043  RH  032%=      5-min Rain = 0
KCO1 112332Z 33004KT 12/M04 A3025 RMK A01 T01191040  RH  033%=      5-min Rain = 0
KCO1 112333Z 33006KT 12/M04 A3025 RMK A01 T01191039  RH  033%=      5-min Rain = 0
KCO1 112334Z 33006KT 12/M04 A3025 RMK A01 T01191041  RH  033%=      5-min Rain = 0
KCO1 112335Z 34005KT 12/M04 A3025 RMK A01 T01181040  RH  033%=      5-min Rain = 0
KCO1 112336Z 33005KT 12/M04 A3025 RMK A01 T01181038  RH  033%=      5-min Rain = 0
KCO1 112337Z 33005KT 12/M04 A3025 RMK A01 T01171038  RH  034%=      5-min Rain = 0
KCO1 112338Z 33006KT 12/M04 A3025 RMK A01 T01171038  RH  034%=      5-min Rain = 0
KCO1 112339Z 32005KT 12/M04 A3025 RMK A01 T01171036  RH  034%=      5-min Rain = 0
KCO1 112340Z 34006KT 12/M04 A3025 RMK A01 T01161038  RH  034%=      5-min Rain = 0
KCO1 112341Z 34006KT 12/M04 A3025 RMK A01 T01161041  RH  033%=      5-min Rain = 0
KCO1 112342Z 35007KT 12/M05 A3025 RMK A01 T01151046  RH  032%=      5-min Rain = 0
KCO1 112343Z 35006KT 12/M05 A3025 RMK A01 T01161050  RH  031%=      5-min Rain = 0
KCO1 112344Z 35006KT 12/M05 A3025 RMK A01 T01151051  RH  031%=      5-min Rain = 0
KCO1 112345Z 35005KT 12/M05 A3025 RMK A01 T01151050  RH  031%=      5-min Rain = 0
KCO1 112346Z 35005KT 11/M05 A3025 RMK A01 T01141049  RH  031%=      5-min Rain = 0
KCO1 112347Z 35005KT 11/M05 A3025 RMK A01 T01141050  RH  031%=      5-min Rain = 0
KCO1 112348Z 35006KT 11/M05 A3025 RMK A01 T01131052  RH  031%=      5-min Rain = 0
KCO1 112349Z 35005KT 11/M05 A3025 RMK A01 T01121053  RH  031%=      5-min Rain = 0
KCO1 112350Z 35005KT 11/M05 A3025 RMK A01 T01121053  RH  031%=      5-min Rain = 0
KCO1 112351Z 35005KT 11/M06 A3025 RMK A01 T01111055  RH  031%=      5-min Rain = 0
KCO1 112352Z 35006KT 11/M06 A3025 RMK A01 T01101055  RH  031%=      5-min Rain = 0
KCO1 112353Z 36005KT 11/M06 A3025 RMK A01 T01101057  RH  031%=      5-min Rain = 0
KCO1 112354Z 36005KT 11/M06 A3026 RMK A01 T01091057  RH  031%=      5-min Rain = 0
KCO1 112355Z 36005KT 11/M06 A3026 RMK A01 T01091057  RH  031%=      5-min Rain = 0
KCO1 112356Z 36005KT 11/M06 A3026 RMK A01 T01081057  RH  031%=      5-min Rain = 0
KCO1 112357Z 36005KT 11/M06 A3026 RMK A01 T01071057  RH  031%=      5-min Rain = 0
KCO1 112358Z 36004KT 11/M06 A3025 RMK A01 T01061057  RH  031%=      5-min Rain = 0
KCO1 112359Z 35003KT 11/M06 A3025 RMK A01 T01051057  RH  032%=      5-min Rain = 0
KCO1 120000Z 34004KT 10/M06 A3025 RMK A01 T01041055  RH  032%=      5-min Rain = 0
KCO1 120001Z 33003KT 10/M05 A3026 RMK A01 T01031052  RH  033%=      5-min Rain = 0
KCO1 120002Z 34003KT 10/M05 A3026 RMK A01 T01021051  RH  034%=      5-min Rain = 0
KCO1 120003Z 34004KT 10/M05 A3026 RMK A01 T01011053  RH  033%=      5-min Rain = 0
KCO1 120004Z 33003KT 10/M05 A3026 RMK A01 T01001052  RH  034%=      5-min Rain = 0
KCO1 120005Z 32003KT 10/M05 A3026 RMK A01 T00991052  RH  034%=      5-min Rain = 0
KCO1 120006Z 32004KT 10/M05 A3026 RMK A01 T00971052  RH  035%=      5-min Rain = 0
KCO1 120007Z 33004KT 10/M05 A3026 RMK A01 T00961051  RH  035%=      5-min Rain = 0
KCO1 120008Z 33003KT 10/M05 A3026 RMK A01 T00951052  RH  035%=      5-min Rain = 0
KCO1 120009Z 33003KT 10/M05 A3026 RMK A01 T00951052  RH  035%=      5-min Rain = 0
KCO1 120010Z 33003KT 10/M05 A3026 RMK A01 T00951052  RH  035%=      5-min Rain = 0
KCO1 120011Z 33003KT 10/M05 A3026 RMK A01 T00951051  RH  035%=      5-min Rain = 0
KCO1 120012Z 33003KT 09/M05 A3026 RMK A01 T00941052  RH  035%=      5-min Rain = 0
KCO1 120013Z 33003KT 09/M05 A3026 RMK A01 T00931052  RH  035%=      5-min Rain = 0
KCO1 120014Z 33003KT 09/M05 A3026 RMK A01 T00931052  RH  035%=      5-min Rain = 0
KCO1 120015Z 33003KT 09/M05 A3026 RMK A01 T00921051  RH  036%=      5-min Rain = 0
KCO1 120016Z 33003KT 09/M05 A3026 RMK A01 T00911048  RH  037%=      5-min Rain = 0
KCO1 120017Z 32002KT 09/M05 A3026 RMK A01 T00901046  RH  038%=      5-min Rain = 0
KCO1 120018Z 32002KT 09/M05 A3026 RMK A01 T00891045  RH  039%=      5-min Rain = 0
KCO1 120019Z 32002KT 09/M05 A3026 RMK A01 T00871045  RH  039%=      5-min Rain = 0
KCO1 120020Z 33002KT 09/M04 A3026 RMK A01 T00861043  RH  040%=      5-min Rain = 0
KCO1 120021Z 32002KT 09/M05 A3026 RMK A01 T00861047  RH  039%=      5-min Rain = 0
KCO1 120022Z 29002KT 09/M05 A3026 RMK A01 T00861052  RH  037%=      5-min Rain = 0
KCO1 120023Z 29003KT 09/M05 A3026 RMK A01 T00881050  RH  037%=      5-min Rain = 0
KCO1 120024Z 29002KT 09/M05 A3026 RMK A01 T00881049  RH  038%=      5-min Rain = 0
KCO1 120025Z 29002KT 09/M05 A3026 RMK A01 T00871048  RH  038%=      5-min Rain = 0
KCO1 120026Z 29002KT 09/M05 A3026 RMK A01 T00861049  RH  038%=      5-min Rain = 0
KCO1 120027Z 29002KT 09/M05 A3026 RMK A01 T00851049  RH  038%=      5-min Rain = 0
KCO1 120028Z 30002KT 09/M05 A3026 RMK A01 T00851049  RH  038%=      5-min Rain = 0
KCO1 120029Z 30001KT 08/M05 A3026 RMK A01 T00841050  RH  038%=      5-min Rain = 0
KCO1 120030Z 29001KT 08/M05 A3026 RMK A01 T00831050  RH  038%=      5-min Rain = 0
KCO1 120031Z 29001KT 08/M05 A3026 RMK A01 T00831050  RH  038%=      5-min Rain = 0
KCO1 120032Z 28001KT 08/M05 A3026 RMK A01 T00831050  RH  038%=      5-min Rain = 0
KCO1 120033Z 28001KT 08/M05 A3026 RMK A01 T00831050  RH  039%=      5-min Rain = 0
KCO1 120034Z 28001KT 08/M05 A3026 RMK A01 T00831049  RH  039%=      5-min Rain = 0
KCO1 120035Z 27001KT 08/M05 A3026 RMK A01 T00821051  RH  038%=      5-min Rain = 0
KCO1 120036Z 28002KT 08/M05 A3026 RMK A01 T00821053  RH  038%=      5-min Rain = 0
KCO1 120037Z 28002KT 08/M05 A3026 RMK A01 T00831053  RH  038%=      5-min Rain = 0
KCO1 120038Z 29002KT 08/M05 A3026 RMK A01 T00831053  RH  038%=      5-min Rain = 0
KCO1 120039Z 30002KT 08/M05 A3026 RMK A01 T00831053  RH  038%=      5-min Rain = 0
KCO1 120040Z 30002KT 08/M05 A3026 RMK A01 T00831053  RH  038%=      5-min Rain = 0
KCO1 120041Z 31002KT 08/M05 A3026 RMK A01 T00821053  RH  038%=      5-min Rain = 0
KCO1 120042Z 31003KT 08/M05 A3026 RMK A01 T00821053  RH  038%=      5-min Rain = 0
KCO1 120043Z 31003KT 08/M05 A3026 RMK A01 T00821054  RH  038%=      5-min Rain = 0
KCO1 120044Z 31003KT 08/M05 A3026 RMK A01 T00821054  RH  038%=      5-min Rain = 0
KCO1 120045Z 32003KT 08/M05 A3027 RMK A01 T00821053  RH  038%=      5-min Rain = 0
KCO1 120046Z 32003KT 08/M05 A3027 RMK A01 T00831047  RH  040%=      5-min Rain = 0
KCO1 120047Z 32003KT 08/M04 A3027 RMK A01 T00831043  RH  041%=      5-min Rain = 0
KCO1 120048Z 33003KT 08/M05 A3027 RMK A01 T00831045  RH  040%=      5-min Rain = 0
KCO1 120049Z 33004KT 08/M05 A3027 RMK A01 T00831048  RH  039%=      5-min Rain = 0
KCO1 120050Z 33004KT 08/M05 A3027 RMK A01 T00841048  RH  039%=      5-min Rain = 0
KCO1 120051Z 33004KT 08/M05 A3026 RMK A01 T00841049  RH  039%=      5-min Rain = 0
KCO1 120052Z 34006KT 09/M05 A3027 RMK A01 T00851046  RH  039%=      5-min Rain = 0
KCO1 120053Z 34004KT 09/M05 A3027 RMK A01 T00871054  RH  036%=      5-min Rain = 0
KCO1 120054Z 33005KT 09/M05 A3027 RMK A01 T00861047  RH  039%=      5-min Rain = 0
KCO1 120055Z 33005KT 08/M05 A3027 RMK A01 T00831049  RH  039%=      5-min Rain = 0
KCO1 120056Z 33005KT 08/M05 A3027 RMK A01 T00821051  RH  038%=      5-min Rain = 0
KCO1 120057Z 33004KT 08/M05 A3027 RMK A01 T00821050  RH  039%=      5-min Rain = 0
KCO1 120058Z 33004KT 08/M05 A3027 RMK A01 T00801047  RH  040%=      5-min Rain = 0
KCO1 120059Z 33004KT 08/M05 A3027 RMK A01 T00791050  RH  040%=      5-min Rain = 0
KCO1 120100Z 34004KT 08/M05 A3027 RMK A01 T00781052  RH  039%=      5-min Rain = 0
KCO1 120101Z 33004KT 08/M05 A3027 RMK A01 T00781050  RH  040%=      5-min Rain = 0
KCO1 120102Z 34004KT 08/M05 A3027 RMK A01 T00781051  RH  040%=      5-min Rain = 0
KCO1 120103Z 34004KT 08/M05 A3027 RMK A01 T00781050  RH  040%=      5-min Rain = 0
KCO1 120104Z 34004KT 08/M05 A3027 RMK A01 T00771047  RH  041%=      5-min Rain = 0
KCO1 120105Z 34004KT 08/M04 A3027 RMK A01 T00751044  RH  042%=      5-min Rain = 0
KCO1 120106Z 34004KT 07/M04 A3027 RMK A01 T00741042  RH  043%=      5-min Rain = 0
KCO1 120107Z 34004KT 07/M04 A3027 RMK A01 T00731042  RH  044%=      5-min Rain = 0
KCO1 120108Z 34004KT 07/M04 A3027 RMK A01 T00731044  RH  043%=      5-min Rain = 0
KCO1 120109Z 34004KT 07/M05 A3027 RMK A01 T00721045  RH  043%=      5-min Rain = 0
KCO1 120110Z 33004KT 07/M04 A3027 RMK A01 T00711042  RH  044%=      5-min Rain = 0
KCO1 120111Z 34004KT 07/M04 A3027 RMK A01 T00701042  RH  045%=      5-min Rain = 0
KCO1 120112Z 34004KT 07/M04 A3027 RMK A01 T00691043  RH  045%=      5-min Rain = 0
KCO1 120113Z 35004KT 07/M05 A3027 RMK A01 T00691046  RH  044%=      5-min Rain = 0
KCO1 120114Z 34004KT 07/M05 A3027 RMK A01 T00691048  RH  043%=      5-min Rain = 0
KCO1 120115Z 35004KT 07/M05 A3027 RMK A01 T00681048  RH  043%=      5-min Rain = 0
KCO1 120116Z 35004KT 07/M05 A3027 RMK A01 T00671049  RH  043%=      5-min Rain = 0
KCO1 120117Z 35004KT 07/M05 A3027 RMK A01 T00671050  RH  043%=      5-min Rain = 0
KCO1 120118Z 35004KT 07/M05 A3027 RMK A01 T00671050  RH  043%=      5-min Rain = 0
KCO1 120119Z 35004KT 07/M05 A3027 RMK A01 T00671047  RH  044%=      5-min Rain = 0
KCO1 120120Z 35004KT 07/M05 A3027 RMK A01 T00671047  RH  044%=      5-min Rain = 0
KCO1 120121Z 34004KT 07/M05 A3027 RMK A01 T00671048  RH  044%=      5-min Rain = 0
KCO1 120122Z 34004KT 07/M05 A3027 RMK A01 T00671049  RH  044%=      5-min Rain = 0
KCO1 120123Z 34004KT 07/M05 A3027 RMK A01 T00671045  RH  045%=      5-min Rain = 0
KCO1 120124Z 35004KT 07/M04 A3027 RMK A01 T00661043  RH  046%=      5-min Rain = 0
KCO1 120125Z 34004KT 07/M04 A3027 RMK A01 T00651042  RH  046%=      5-min Rain = 0
KCO1 120126Z 33004KT 06/M05 A3027 RMK A01 T00631049  RH  045%=      5-min Rain = 0
KCO1 120127Z 33004KT 06/M05 A3027 RMK A01 T00631052  RH  044%=      5-min Rain = 0
KCO1 120128Z 33004KT 06/M06 A3027 RMK A01 T00621056  RH  042%=      5-min Rain = 0
KCO1 120129Z 33004KT 06/M06 A3027 RMK A01 T00621056  RH  042%=      5-min Rain = 0
KCO1 120130Z 33004KT 06/M05 A3027 RMK A01 T00621054  RH  043%=      5-min Rain = 0
KCO1 120131Z 33003KT 06/M05 A3027 RMK A01 T00611054  RH  044%=      5-min Rain = 0
KCO1 120132Z 32003KT 06/M05 A3027 RMK A01 T00601054  RH  044%=      5-min Rain = 0
KCO1 120133Z 32003KT 06/M05 A3027 RMK A01 T00591052  RH  045%=      5-min Rain = 0
KCO1 120134Z 32003KT 06/M05 A3027 RMK A01 T00581051  RH  045%=      5-min Rain = 0
KCO1 120135Z 30002KT 06/M05 A3027 RMK A01 T00571052  RH  045%=      5-min Rain = 0
KCO1 120136Z 29002KT 06/M05 A3027 RMK A01 T00571053  RH  045%=      5-min Rain = 0
KCO1 120137Z 27002KT 06/M05 A3027 RMK A01 T00571051  RH  046%=      5-min Rain = 0
KCO1 120138Z 26002KT 06/M04 A3027 RMK A01 T00571044  RH  049%=      5-min Rain = 0
KCO1 120139Z 27002KT 06/M04 A3027 RMK A01 T00571044  RH  048%=      5-min Rain = 0
KCO1 120140Z 25002KT 06/M05 A3027 RMK A01 T00571047  RH  047%=      5-min Rain = 0
KCO1 120141Z 25002KT 06/M04 A3027 RMK A01 T00571041  RH  049%=      5-min Rain = 0
KCO1 120142Z 26002KT 06/M04 A3027 RMK A01 T00561044  RH  049%=      5-min Rain = 0
KCO1 120143Z 26003KT 06/M05 A3028 RMK A01 T00551046  RH  048%=      5-min Rain = 0
KCO1 120144Z 26002KT 06/M05 A3027 RMK A01 T00561047  RH  047%=      5-min Rain = 0
KCO1 120145Z 26002KT 06/M05 A3028 RMK A01 T00551047  RH  048%=      5-min Rain = 0
KCO1 120146Z 26003KT 06/M05 A3028 RMK A01 T00561047  RH  048%=      5-min Rain = 0
KCO1 120147Z 26003KT 06/M05 A3028 RMK A01 T00561048  RH  047%=      5-min Rain = 0
KCO1 120148Z 26003KT 06/M05 A3028 RMK A01 T00571047  RH  047%=      5-min Rain = 0
KCO1 120149Z 26003KT 06/M05 A3028 RMK A01 T00571046  RH  048%=      5-min Rain = 0
KCO1 120150Z 26003KT 06/M04 A3028 RMK A01 T00561044  RH  049%=      5-min Rain = 0
KCO1 120151Z 25003KT 05/M04 A3028 RMK A01 T00541043  RH  050%=      5-min Rain = 0
KCO1 120152Z 26003KT 05/M04 A3028 RMK A01 T00521043  RH  050%=      5-min Rain = 0
KCO1 120153Z 25003KT 05/M04 A3028 RMK A01 T00511042  RH  051%=      5-min Rain = 0
KCO1 120154Z 26003KT 05/M04 A3028 RMK A01 T00501043  RH  051%=      5-min Rain = 0
KCO1 120155Z 26003KT 05/M04 A3028 RMK A01 T00501041  RH  052%=      5-min Rain = 0
KCO1 120156Z 26002KT 05/M04 A3028 RMK A01 T00491041  RH  052%=      5-min Rain = 0
KCO1 120157Z 26002KT 05/M04 A3028 RMK A01 T00491043  RH  051%=      5-min Rain = 0
KCO1 120158Z 26002KT 05/M05 A3028 RMK A01 T00511045  RH  050%=      5-min Rain = 0
KCO1 120159Z 27002KT 05/M05 A3028 RMK A01 T00511045  RH  050%=      5-min Rain = 0
KCO1 120200Z 27002KT 05/M05 A3028 RMK A01 T00511045  RH  050%=      5-min Rain = 0
KCO1 120201Z 26002KT 05/M05 A3028 RMK A01 T00511046  RH  050%=      5-min Rain = 0
KCO1 120202Z 26003KT 05/M05 A3028 RMK A01 T00501045  RH  050%=      5-min Rain = 0
KCO1 120203Z 25003KT 05/M04 A3028 RMK A01 T00491044  RH  051%=      5-min Rain = 0
KCO1 120204Z 25003KT 05/M04 A3028 RMK A01 T00491043  RH  051%=      5-min Rain = 0
KCO1 120205Z 24004KT 05/M04 A3028 RMK A01 T00491041  RH  052%=      5-min Rain = 0
KCO1 120206Z 24004KT 05/M04 A3028 RMK A01 T00481039  RH  053%=      5-min Rain = 0
KCO1 120207Z 24004KT 05/M04 A3028 RMK A01 T00471041  RH  053%=      5-min Rain = 0
KCO1 120208Z 25004KT 05/M04 A3028 RMK A01 T00461041  RH  053%=      5-min Rain = 0
KCO1 120209Z 25004KT 05/M04 A3028 RMK A01 T00451040  RH  054%=      5-min Rain = 0
KCO1 120210Z 25004KT 04/M04 A3028 RMK A01 T00431039  RH  055%=      5-min Rain = 0
KCO1 120211Z 25004KT 04/M04 A3028 RMK A01 T00411039  RH  056%=      5-min Rain = 0
KCO1 120212Z 25004KT 04/M04 A3028 RMK A01 T00411039  RH  056%=      5-min Rain = 0
KCO1 120213Z 25004KT 04/M04 A3028 RMK A01 T00411039  RH  056%=      5-min Rain = 0
KCO1 120214Z 26004KT 04/M04 A3028 RMK A01 T00411040  RH  056%=      5-min Rain = 0
KCO1 120215Z 26003KT 04/M04 A3028 RMK A01 T00411040  RH  056%=      5-min Rain = 0
KCO1 120216Z 25003KT 04/M04 A3028 RMK A01 T00411040  RH  056%=      5-min Rain = 0
KCO1 120217Z 25003KT 04/M04 A3028 RMK A01 T00411040  RH  056%=      5-min Rain = 0
KCO1 120218Z 25003KT 04/M04 A3028 RMK A01 T00411041  RH  055%=      5-min Rain = 0
KCO1 120219Z 26003KT 04/M04 A3028 RMK A01 T00421041  RH  055%=      5-min Rain = 0
KCO1 120220Z 26002KT 04/M04 A3028 RMK A01 T00431042  RH  054%=      5-min Rain = 0
KCO1 120221Z 26002KT 04/M04 A3028 RMK A01 T00431042  RH  054%=      5-min Rain = 0
KCO1 120222Z 26002KT 04/M04 A3028 RMK A01 T00411042  RH  055%=      5-min Rain = 0
KCO1 120223Z 26001KT 04/M04 A3028 RMK A01 T00401042  RH  055%=      5-min Rain = 0
KCO1 120224Z 27002KT 04/M04 A3028 RMK A01 T00391042  RH  055%=      5-min Rain = 0
KCO1 120225Z 27002KT 04/M04 A3028 RMK A01 T00391041  RH  056%=      5-min Rain = 0
KCO1 120226Z 27002KT 04/M04 A3028 RMK A01 T00381042  RH  056%=      5-min Rain = 0
KCO1 120227Z 27002KT 04/M04 A3028 RMK A01 T00371041  RH  056%=      5-min Rain = 0
KCO1 120228Z 27002KT 04/M04 A3028 RMK A01 T00371041  RH  057%=      5-min Rain = 0
KCO1 120229Z 27002KT 04/M04 A3028 RMK A01 T00371041  RH  057%=      5-min Rain = 0
KCO1 120230Z 27002KT 04/M04 A3028 RMK A01 T00361040  RH  057%=      5-min Rain = 0
KCO1 120231Z 27002KT 04/M04 A3028 RMK A01 T00351039  RH  058%=      5-min Rain = 0
KCO1 120232Z 27002KT 03/M04 A3028 RMK A01 T00341037  RH  060%=      5-min Rain = 0
KCO1 120233Z 27002KT 03/M04 A3028 RMK A01 T00341036  RH  060%=      5-min Rain = 0
KCO1 120234Z 27002KT 03/M04 A3028 RMK A01 T00331035  RH  061%=      5-min Rain = 0
KCO1 120235Z 26002KT 03/M03 A3028 RMK A01 T00321034  RH  062%=      5-min Rain = 0
KCO1 120236Z 23003KT 03/M03 A3028 RMK A01 T00311034  RH  062%=      5-min Rain = 0
KCO1 120237Z 22004KT 03/M04 A3028 RMK A01 T00291035  RH  062%=      5-min Rain = 0
KCO1 120238Z 23004KT 03/M04 A3028 RMK A01 T00291036  RH  062%=      5-min Rain = 0
KCO1 120239Z 23004KT 03/M04 A3028 RMK A01 T00281037  RH  062%=      5-min Rain = 0
KCO1 120240Z 24004KT 03/M04 A3028 RMK A01 T00281038  RH  062%=      5-min Rain = 0
KCO1 120241Z 24005KT 03/M04 A3028 RMK A01 T00281038  RH  062%=      5-min Rain = 0
KCO1 120242Z 24006KT 03/M04 A3028 RMK A01 T00281037  RH  062%=      5-min Rain = 0
KCO1 120243Z 24006KT 03/M04 A3028 RMK A01 T00281037  RH  063%=      5-min Rain = 0
KCO1 120244Z 23005KT 03/M04 A3028 RMK A01 T00271036  RH  063%=      5-min Rain = 0
KCO1 120245Z 23005KT 03/M04 A3028 RMK A01 T00291036  RH  063%=      5-min Rain = 0
KCO1 120246Z 23005KT 03/M04 A3028 RMK A01 T00301035  RH  063%=      5-min Rain = 0
KCO1 120247Z 22005KT 03/M04 A3029 RMK A01 T00291035  RH  063%=      5-min Rain = 0
KCO1 120248Z 23005KT 03/M04 A3029 RMK A01 T00271036  RH  063%=      5-min Rain = 0
KCO1 120249Z 23004KT 03/M04 A3028 RMK A01 T00261035  RH  064%=      5-min Rain = 0
KCO1 120250Z 23004KT 03/M04 A3028 RMK A01 T00251036  RH  064%=      5-min Rain = 0
KCO1 120251Z 23003KT 03/M04 A3028 RMK A01 T00251035  RH  064%=      5-min Rain = 0
KCO1 120252Z 25003KT 03/M04 A3028 RMK A01 T00251036  RH  064%=      5-min Rain = 0
KCO1 120253Z 26003KT 03/M04 A3028 RMK A01 T00261036  RH  063%=      5-min Rain = 0
KCO1 120254Z 26002KT 03/M04 A3028 RMK A01 T00281036  RH  063%=      5-min Rain = 0
KCO1 120255Z 27002KT 03/M04 A3028 RMK A01 T00291036  RH  062%=      5-min Rain = 0
KCO1 120256Z 27002KT 03/M04 A3028 RMK A01 T00281036  RH  062%=      5-min Rain = 0
KCO1 120257Z 27002KT 03/M04 A3028 RMK A01 T00281037  RH  062%=      5-min Rain = 0
KCO1 120258Z 27002KT 03/M04 A3028 RMK A01 T00271038  RH  062%=      5-min Rain = 0
KCO1 120259Z 26002KT 03/M04 A3028 RMK A01 T00271037  RH  063%=      5-min Rain = 0
KCO1 120300Z 24003KT 03/M04 A3028 RMK A01 T00261037  RH  063%=      5-min Rain = 0
KCO1 120301Z 23004KT 03/M04 A3028 RMK A01 T00251036  RH  064%=      5-min Rain = 0
KCO1 120302Z 22005KT 03/M03 A3028 RMK A01 T00251034  RH  065%=      5-min Rain = 0
KCO1 120303Z 22006KT 03/M03 A3028 RMK A01 T00261033  RH  065%=      5-min Rain = 0
KCO1 120304Z 22007KT 03/M03 A3028 RMK A01 T00251032  RH  066%=      5-min Rain = 0
KCO1 120305Z 22007KT 03/M03 A3028 RMK A01 T00261032  RH  066%=      5-min Rain = 0
KCO1 120306Z 22008KT 03/M03 A3028 RMK A01 T00251033  RH  065%=      5-min Rain = 0
KCO1 120307Z 22009KT 03/M03 A3029 RMK A01 T00251034  RH  065%=      5-min Rain = 0
KCO1 120308Z 22009KT 03/M04 A3028 RMK A01 T00251035  RH  065%=      5-min Rain = 0
KCO1 120309Z 23008KT 03/M04 A3028 RMK A01 T00251035  RH  065%=      5-min Rain = 0
KCO1 120310Z 22007KT 03/M04 A3028 RMK A01 T00261035  RH  064%=      5-min Rain = 0
KCO1 120311Z 22007KT 03/M03 A3028 RMK A01 T00261034  RH  065%=      5-min Rain = 0
KCO1 120312Z 23007KT 03/M03 A3028 RMK A01 T00261034  RH  065%=      5-min Rain = 0
KCO1 120313Z 23007KT 03/M03 A3029 RMK A01 T00271033  RH  064%=      5-min Rain = 0
KCO1 120314Z 23007KT 03/M03 A3029 RMK A01 T00271034  RH  064%=      5-min Rain = 0
KCO1 120315Z 23007KT 03/M03 A3029 RMK A01 T00271034  RH  064%=      5-min Rain = 0
KCO1 120316Z 23007KT 03/M03 A3029 RMK A01 T00261034  RH  065%=      5-min Rain = 0
KCO1 120317Z 23007KT 03/M03 A3029 RMK A01 T00261033  RH  065%=      5-min Rain = 0
KCO1 120318Z 23007KT 03/M03 A3029 RMK A01 T00261034  RH  065%=      5-min Rain = 0
KCO1 120319Z 23007KT 03/M03 A3029 RMK A01 T00261033  RH  065%=      5-min Rain = 0
KCO1 120320Z 23007KT 03/M03 A3029 RMK A01 T00271033  RH  065%=      5-min Rain = 0
KCO1 120321Z 23006KT 03/M03 A3029 RMK A01 T00261032  RH  065%=      5-min Rain = 0
KCO1 120322Z 22006KT 03/M03 A3029 RMK A01 T00261033  RH  065%=      5-min Rain = 0
KCO1 120323Z 21006KT 03/M03 A3029 RMK A01 T00261032  RH  065%=      5-min Rain = 0
KCO1 120324Z 21004KT 03/M03 A3029 RMK A01 T00261032  RH  066%=      5-min Rain = 0
KCO1 120325Z 21005KT 03/M03 A3029 RMK A01 T00261031  RH  066%=      5-min Rain = 0
KCO1 120326Z 21005KT 03/M03 A3029 RMK A01 T00251031  RH  067%=      5-min Rain = 0
KCO1 120327Z 21006KT 02/M03 A3029 RMK A01 T00241030  RH  068%=      5-min Rain = 0
KCO1 120328Z 20005KT 02/M03 A3029 RMK A01 T00231030  RH  068%=      5-min Rain = 0
KCO1 120329Z 20005KT 02/M03 A3029 RMK A01 T00221030  RH  068%=      5-min Rain = 0
KCO1 120330Z 21005KT 02/M03 A3029 RMK A01 T00201031  RH  069%=      5-min Rain = 0
KCO1 120331Z 21005KT 02/M03 A3029 RMK A01 T00181032  RH  069%=      5-min Rain = 0
KCO1 120332Z 21005KT 02/M03 A3029 RMK A01 T00161032  RH  070%=      5-min Rain = 0
KCO1 120333Z 21005KT 02/M03 A3029 RMK A01 T00161032  RH  071%=      5-min Rain = 0
KCO1 120334Z 21005KT 02/M03 A3029 RMK A01 T00151032  RH  071%=      5-min Rain = 0
KCO1 120335Z 21005KT 01/M03 A3029 RMK A01 T00141031  RH  072%=      5-min Rain = 0
KCO1 120336Z 21005KT 01/M03 A3029 RMK A01 T00141031  RH  072%=      5-min Rain = 0
KCO1 120337Z 21005KT 01/M03 A3029 RMK A01 T00131030  RH  073%=      5-min Rain = 0
KCO1 120338Z 21006KT 01/M03 A303 RMK A01 T00131030  RH  073%=      5-min Rain = 0
KCO1 120339Z 21006KT 01/M03 A303 RMK A01 T00121029  RH  074%=      5-min Rain = 0
KCO1 120340Z 21006KT 01/M03 A303 RMK A01 T00121029  RH  074%=      5-min Rain = 0
KCO1 120341Z 21006KT 01/M03 A303 RMK A01 T00111029  RH  075%=      5-min Rain = 0
KCO1 120342Z 21007KT 01/M03 A303 RMK A01 T00111029  RH  075%=      5-min Rain = 0
KCO1 120343Z 21007KT 01/M03 A303 RMK A01 T00101030  RH  075%=      5-min Rain = 0
KCO1 120344Z 21007KT 01/M03 A303 RMK A01 T00101029  RH  075%=      5-min Rain = 0
KCO1 120345Z 21007KT 01/M03 A303 RMK A01 T00101029  RH  075%=      5-min Rain = 0
KCO1 120346Z 21007KT 01/M03 A303 RMK A01 T00101029  RH  075%=      5-min Rain = 0
KCO1 120347Z 21006KT 01/M03 A303 RMK A01 T00101029  RH  075%=      5-min Rain = 0
KCO1 120348Z 21006KT 01/M03 A303 RMK A01 T00101029  RH  075%=      5-min Rain = 0
KCO1 120349Z 21006KT 01/M03 A303 RMK A01 T00101029  RH  075%=      5-min Rain = 0
KCO1 120350Z 22006KT 01/M03 A303 RMK A01 T00101029  RH  075%=      5-min Rain = 0
KCO1 120351Z 22006KT 01/M03 A303 RMK A01 T00101028  RH  076%=      5-min Rain = 0
KCO1 120352Z 21006KT 01/M03 A303 RMK A01 T00091028  RH  076%=      5-min Rain = 0
KCO1 120353Z 22006KT 01/M03 A303 RMK A01 T00091028  RH  076%=      5-min Rain = 0
KCO1 120354Z 21006KT 01/M03 A303 RMK A01 T00091028  RH  076%=      5-min Rain = 0
KCO1 120355Z 21006KT 01/M03 A303 RMK A01 T00091027  RH  077%=      5-min Rain = 0
KCO1 120356Z 21006KT 01/M03 A303 RMK A01 T00091027  RH  077%=      5-min Rain = 0
KCO1 120357Z 21006KT 01/M03 A303 RMK A01 T00091027  RH  077%=      5-min Rain = 0
KCO1 120358Z 21006KT 01/M03 A303 RMK A01 T00081028  RH  077%=      5-min Rain = 0
KCO1 120359Z 21006KT 01/M03 A303 RMK A01 T00081027  RH  077%=      5-min Rain = 0
KCO1 120400Z 20007KT 01/M03 A303 RMK A01 T00081028  RH  077%=      5-min Rain = 0
KCO1 120401Z 20006KT 01/M03 A303 RMK A01 T00071028  RH  077%=      5-min Rain = 0
KCO1 120402Z 20007KT 01/M03 A303 RMK A01 T00071027  RH  078%=      5-min Rain = 0
KCO1 120403Z 20006KT 01/M03 A303 RMK A01 T00071027  RH  078%=      5-min Rain = 0
KCO1 120404Z 20006KT 01/M03 A303 RMK A01 T00071027  RH  078%=      5-min Rain = 0
KCO1 120405Z 21006KT 01/M03 A303 RMK A01 T00071028  RH  077%=      5-min Rain = 0
KCO1 120406Z 21006KT 01/M03 A303 RMK A01 T00071028  RH  077%=      5-min Rain = 0
KCO1 120407Z 21006KT 01/M03 A303 RMK A01 T00061029  RH  077%=      5-min Rain = 0
KCO1 120408Z 21006KT 01/M03 A303 RMK A01 T00061029  RH  078%=      5-min Rain = 0
KCO1 120409Z 21005KT 01/M03 A303 RMK A01 T00061028  RH  078%=      5-min Rain = 0
KCO1 120410Z 21005KT 01/M03 A303 RMK A01 T00071027  RH  078%=      5-min Rain = 0
KCO1 120411Z 21005KT 01/M03 A303 RMK A01 T00081026  RH  078%=      5-min Rain = 0
KCO1 120412Z 21005KT 01/M03 A303 RMK A01 T00081027  RH  077%=      5-min Rain = 0
KCO1 120413Z 21006KT 01/M03 A303 RMK A01 T00091027  RH  077%=      5-min Rain = 0
KCO1 120414Z 21006KT 01/M03 A303 RMK A01 T00081028  RH  077%=      5-min Rain = 0
KCO1 120415Z 21005KT 01/M03 A303 RMK A01 T00081028  RH  077%=      5-min Rain = 0
KCO1 120416Z 21006KT 01/M03 A303 RMK A01 T00071028  RH  077%=      5-min Rain = 0
KCO1 120417Z 21006KT 01/M03 A303 RMK A01 T00071027  RH  078%=      5-min Rain = 0
KCO1 120418Z 21006KT 01/M03 A303 RMK A01 T00071028  RH  078%=      5-min Rain = 0
KCO1 120419Z 21006KT 01/M03 A303 RMK A01 T00071027  RH  078%=      5-min Rain = 0
KCO1 120420Z 20005KT 01/M03 A303 RMK A01 T00071027  RH  078%=      5-min Rain = 0
KCO1 120421Z 20005KT 01/M03 A303 RMK A01 T00071028  RH  078%=      5-min Rain = 0
KCO1 120422Z 20005KT 01/M03 A303 RMK A01 T00061028  RH  078%=      5-min Rain = 0
KCO1 120423Z 20005KT 01/M03 A303 RMK A01 T00051029  RH  078%=      5-min Rain = 0
KCO1 120424Z 20005KT 01/M03 A303 RMK A01 T00051029  RH  078%=      5-min Rain = 0
KCO1 120425Z 20006KT 00/M03 A303 RMK A01 T00041029  RH  078%=      5-min Rain = 0
KCO1 120426Z 20006KT 00/M03 A303 RMK A01 T00031029  RH  079%=      5-min Rain = 0
KCO1 120427Z 20007KT 00/M03 A303 RMK A01 T00031029  RH  079%=      5-min Rain = 0
KCO1 120428Z 20008KT 00/M03 A303 RMK A01 T00031029  RH  079%=      5-min Rain = 0
KCO1 120429Z 20007KT 00/M03 A303 RMK A01 T00031028  RH  080%=      5-min Rain = 0
KCO1 120430Z 20007KT 00/M03 A303 RMK A01 T00031028  RH  080%=      5-min Rain = 0
KCO1 120431Z 20008KT 00/M03 A303 RMK A01 T00031028  RH  079%=      5-min Rain = 0
KCO1 120432Z 20008KT 00/M03 A303 RMK A01 T00041027  RH  080%=      5-min Rain = 0
KCO1 120433Z 20007KT 01/M03 A3031 RMK A01 T00051026  RH  079%=      5-min Rain = 0
KCO1 120434Z 20007KT 01/M03 A303 RMK A01 T00061026  RH  079%=      5-min Rain = 0
KCO1 120435Z 20007KT 01/M03 A303 RMK A01 T00061027  RH  079%=      5-min Rain = 0
KCO1 120436Z 20006KT 01/M03 A303 RMK A01 T00061027  RH  079%=      5-min Rain = 0
KCO1 120437Z 20006KT 01/M03 A3031 RMK A01 T00051027  RH  079%=      5-min Rain = 0
KCO1 120438Z 20006KT 00/M03 A3031 RMK A01 T00041028  RH  079%=      5-min Rain = 0
KCO1 120439Z 20006KT 00/M03 A3031 RMK A01 T00031029  RH  079%=      5-min Rain = 0
KCO1 120440Z 20006KT 00/M03 A3031 RMK A01 T00021029  RH  080%=      5-min Rain = 0
KCO1 120441Z 20006KT 00/M03 A3031 RMK A01 T00021029  RH  080%=      5-min Rain = 0
KCO1 120442Z 20006KT 00/M03 A3031 RMK A01 T00021028  RH  081%=      5-min Rain = 0
KCO1 120443Z 20007KT 00/M03 A3031 RMK A01 T00021027  RH  081%=      5-min Rain = 0
KCO1 120444Z 20007KT 00/M03 A3031 RMK A01 T00031026  RH  081%=      5-min Rain = 0
KCO1 120445Z 20007KT 00/M03 A3031 RMK A01 T00031026  RH  080%=      5-min Rain = 0
KCO1 120446Z 20007KT 00/M03 A3031 RMK A01 T00041026  RH  080%=      5-min Rain = 0
KCO1 120447Z 19006KT 00/M03 A3031 RMK A01 T00041026  RH  080%=      5-min Rain = 0
KCO1 120448Z 19006KT 00/M03 A3031 RMK A01 T00041026  RH  080%=      5-min Rain = 0
KCO1 120449Z 19006KT 00/M03 A3031 RMK A01 T00031026  RH  081%=      5-min Rain = 0
KCO1 120450Z 19006KT 00/M03 A3031 RMK A01 T00021027  RH  081%=      5-min Rain = 0
KCO1 120451Z 19006KT 00/M03 A3031 RMK A01 T00021027  RH  081%=      5-min Rain = 0
KCO1 120452Z 20006KT 00/M03 A3031 RMK A01 T00021027  RH  081%=      5-min Rain = 0
KCO1 120453Z 20005KT 00/M03 A3031 RMK A01 T00011027  RH  081%=      5-min Rain = 0
KCO1 120454Z 20005KT 00/M03 A3031 RMK A01 T00011027  RH  082%=      5-min Rain = 0
KCO1 120455Z 20005KT 00/03 A3031 RMK A01 T00-00-27  RH  082%=      5-min Rain = 0
KCO1 120456Z 20005KT 00/03 A3031 RMK A01 T00000-27  RH  082%=      5-min Rain = 0
KCO1 120457Z 20005KT 00/03 A3031 RMK A01 T00000-27  RH  082%=      5-min Rain = 0
KCO1 120458Z 20005KT 00/M03 A3031 RMK A01 T00011026  RH  082%=      5-min Rain = 0
KCO1 120459Z 20006KT 00/M03 A3031 RMK A01 T00021026  RH  082%=      5-min Rain = 0
KCO1 120500Z 20006KT 00/M03 A3031 RMK A01 T00031026  RH  081%=      5-min Rain = 0
KCO1 120501Z 19006KT 00/M03 A3031 RMK A01 T00041025  RH  081%=      5-min Rain = 0
KCO1 120502Z 20006KT 00/M03 A3031 RMK A01 T00041025  RH  081%=      5-min Rain = 0
KCO1 120503Z 20006KT 01/M03 A3031 RMK A01 T00051025  RH  080%=      5-min Rain = 0
KCO1 120504Z 20006KT 01/M03 A3031 RMK A01 T00051025  RH  080%=      5-min Rain = 0
KCO1 120505Z 20006KT 01/M03 A3031 RMK A01 T00051026  RH  080%=      5-min Rain = 0
KCO1 120506Z 20006KT 01/M03 A3031 RMK A01 T00051026  RH  080%=      5-min Rain = 0
KCO1 120507Z 20006KT 00/M03 A3031 RMK A01 T00041027  RH  080%=      5-min Rain = 0
KCO1 120508Z 19007KT 00/M03 A3031 RMK A01 T00041027  RH  080%=      5-min Rain = 0
KCO1 120509Z 19007KT 00/M03 A3031 RMK A01 T00031027  RH  080%=      5-min Rain = 0
KCO1 120510Z 19007KT 00/M03 A3031 RMK A01 T00031027  RH  081%=      5-min Rain = 0
KCO1 120511Z 19007KT 00/M03 A3031 RMK A01 T00031026  RH  081%=      5-min Rain = 0
KCO1 120512Z 19007KT 00/M03 A3031 RMK A01 T00041025  RH  081%=      5-min Rain = 0
KCO1 120513Z 19007KT 01/M03 A3031 RMK A01 T00051025  RH  081%=      5-min Rain = 0
KCO1 120514Z 19007KT 01/M02 A3031 RMK A01 T00061024  RH  080%=      5-min Rain = 0
KCO1 120515Z 19006KT 01/M02 A3031 RMK A01 T00071024  RH  080%=      5-min Rain = 0
KCO1 120516Z 19007KT 01/M02 A3031 RMK A01 T00071024  RH  079%=      5-min Rain = 0
KCO1 120517Z 19006KT 01/M03 A3031 RMK A01 T00071025  RH  079%=      5-min Rain = 0
KCO1 120518Z 19006KT 01/M03 A3031 RMK A01 T00071026  RH  078%=      5-min Rain = 0
KCO1 120519Z 19006KT 01/M03 A3031 RMK A01 T00061027  RH  078%=      5-min Rain = 0
KCO1 120520Z 18005KT 00/M03 A3031 RMK A01 T00041029  RH  078%=      5-min Rain = 0
KCO1 120521Z 18005KT 00/M03 A3031 RMK A01 T00011031  RH  079%=      5-min Rain = 0
KCO1 120522Z 17005KT M00/M03 A3031 RMK A01 T10011031  RH  080%=      5-min Rain = 0
KCO1 120523Z 17005KT M00/M03 A3031 RMK A01 T10021031  RH  081%=      5-min Rain = 0
KCO1 120524Z 17005KT M00/M03 A3031 RMK A01 T10041031  RH  082%=      5-min Rain = 0
KCO1 120525Z 17004KT M00/M03 A3031 RMK A01 T10041031  RH  082%=      5-min Rain = 0
KCO1 120526Z 17004KT M01/M03 A3031 RMK A01 T10051031  RH  083%=      5-min Rain = 0
KCO1 120527Z 17004KT M01/M03 A3031 RMK A01 T10061031  RH  083%=      5-min Rain = 0
KCO1 120528Z 17004KT M01/M03 A3031 RMK A01 T10061031  RH  083%=      5-min Rain = 0
KCO1 120529Z 17005KT M01/M03 A3031 RMK A01 T10071031  RH  084%=      5-min Rain = 0
KCO1 120530Z 18005KT M01/M03 A3031 RMK A01 T10071031  RH  084%=      5-min Rain = 0
KCO1 120531Z 17005KT M01/M03 A3031 RMK A01 T10081031  RH  084%=      5-min Rain = 0
KCO1 120532Z 17005KT M01/M03 A3031 RMK A01 T10081032  RH  084%=      5-min Rain = 0
KCO1 120533Z 16005KT M01/M03 A3031 RMK A01 T10091033  RH  084%=      5-min Rain = 0
KCO1 120534Z 14004KT M01/M03 A3031 RMK A01 T10101034  RH  084%=      5-min Rain = 0
KCO1 120535Z 15005KT M01/M03 A3031 RMK A01 T10111034  RH  084%=      5-min Rain = 0
KCO1 120536Z 15006KT M01/M03 A3031 RMK A01 T10111034  RH  085%=      5-min Rain = 0
KCO1 120537Z 15005KT M01/M03 A3031 RMK A01 T10111032  RH  085%=      5-min Rain = 0
KCO1 120538Z 16006KT M01/M03 A3031 RMK A01 T10111032  RH  086%=      5-min Rain = 0
KCO1 120539Z 17005KT M01/M03 A3031 RMK A01 T10111031  RH  086%=      5-min Rain = 0
KCO1 120540Z 16004KT M01/M03 A3031 RMK A01 T10111031  RH  086%=      5-min Rain = 0
KCO1 120541Z 14003KT M01/M03 A3031 RMK A01 T10111031  RH  086%=      5-min Rain = 0
KCO1 120542Z 16003KT M01/M03 A3031 RMK A01 T10111031  RH  087%=      5-min Rain = 0
KCO1 120543Z 16004KT M01/M03 A3031 RMK A01 T10111030  RH  087%=      5-min Rain = 0
KCO1 120544Z 17004KT M01/M03 A303 RMK A01 T10121030  RH  087%=      5-min Rain = 0
KCO1 120545Z 17005KT M01/M03 A303 RMK A01 T10121030  RH  088%=      5-min Rain = 0
KCO1 120546Z 18005KT M01/M03 A3031 RMK A01 T10111029  RH  088%=      5-min Rain = 0
KCO1 120547Z 17005KT M01/M03 A3031 RMK A01 T10111029  RH  088%=      5-min Rain = 0
KCO1 120548Z 16005KT M01/M03 A3031 RMK A01 T10111029  RH  088%=      5-min Rain = 0
KCO1 120549Z 16006KT M01/M03 A3031 RMK A01 T10121030  RH  087%=      5-min Rain = 0
KCO1 120550Z 17006KT M01/M03 A3031 RMK A01 T10131032  RH  087%=      5-min Rain = 0
KCO1 120551Z 17006KT M01/M03 A3031 RMK A01 T10141032  RH  087%=      5-min Rain = 0
KCO1 120552Z 18006KT M01/M03 A3031 RMK A01 T10141032  RH  087%=      5-min Rain = 0
KCO1 120553Z 17006KT M01/M03 A3031 RMK A01 T10141032  RH  088%=      5-min Rain = 0
KCO1 120554Z 17006KT M01/M03 A3031 RMK A01 T10141031  RH  088%=      5-min Rain = 0
KCO1 120555Z 16006KT M01/M03 A3031 RMK A01 T10131030  RH  088%=      5-min Rain = 0
KCO1 120556Z 17005KT M01/M03 A3031 RMK A01 T10121029  RH  089%=      5-min Rain = 0
KCO1 120557Z 17005KT M01/M03 A3031 RMK A01 T10121028  RH  088%=      5-min Rain = 0
KCO1 120558Z 18005KT M01/M03 A3031 RMK A01 T10111028  RH  088%=      5-min Rain = 0
KCO1 120559Z 18004KT M01/M03 A3031 RMK A01 T10111028  RH  088%=      5-min Rain = 0

Page generated in 0.0332 seconds.